PORTS® Data Listing: 8531680 Sandy Hook, NJ

CO-OPS RAW PORTS DATA

************************      PRELIMINARY DATA      ************************** 

     THIS RAW DATA HAS NOT BEEN SUBJECT TO THE NATIONAL OCEAN SERVICE'S        
     QUALITY CONTROL OR QUALITY ASSURANCE PROCEDURES AND DOES NOT MEET         
     THE CRITERIA AND STANDARDS OF OFFICIAL NATIONAL OCEAN SERVICE             
     DATA.  IT IS RELEASED FOR LIMITED PUBLIC USE AS PRELIMINARY DATA TO       
     BE USED ONLY WITH APPROPRIATE CAUTION.                                    

************************      PRELIMINARY DATA      ************************** 


       CD   -   Calendar date
       T    -   Time
       TZ   -   Timezone
       PW   -   Predicted water level (feet above MLLW)
       OW   -   Observed water level (feet above MLLW)
       WS   -   Wind speed (knots)
       WD   -   Wind direction (degrees true)
       WG   -   Wind gust (knots)
       AT   -   Air temperature (degrees farenheit)
       WT   -   Water temperature (degrees farenheit)
       AP   -   Air pressure (millibars)
       SA   -   Salinty (PSU - Practical Salinity Units)
       SG   -   Specific gravity
       RH   -   Relative humidity
       AG   -   Air gap (feet)
       VI   -   Visibility (nautical miles)

       ** NOTE **
       A variable that has its data fields filled with "9"s, indicates that
       data was not collected for that sample period.
       **********


STATION NAME: Sandy Hook (8531680)
****************************************************************************************************
    CD       T    TZ    PW     OW    WS   WD   WG    AT    WT    AP    SA    SG     RH    AG   VI
****************************************************************************************************
2020/02/16 15:48 EST    3.03   2.95    3    8    6  43.2  39.2 1019.4 -9.9 -9.999 -99.9 -99.99 -9.99
2020/02/16 15:54 EST    2.94   2.88    3   13    6  43.0  39.2 1019.5 -9.9 -9.999 -99.9 -99.99 -9.99
2020/02/16 16:00 EST    2.85   2.79    3   27    5  43.0  39.2 1019.6 -9.9 -9.999 -99.9 -99.99 -9.99
2020/02/16 16:06 EST    2.75   2.69    4   34    5  43.0  39.2 1019.6 -9.9 -9.999 -99.9 -99.99 -9.99
2020/02/16 16:12 EST    2.66   2.59    3   48    5  43.0  39.2 1019.6 -9.9 -9.999 -99.9 -99.99 -9.99
2020/02/16 16:18 EST    2.56   2.50    4   51    5  42.8  39.2 1019.5 -9.9 -9.999 -99.9 -99.99 -9.99
2020/02/16 16:24 EST    2.47   2.42    4   52    6  42.4  39.2 1019.5 -9.9 -9.999 -99.9 -99.99 -9.99
2020/02/16 16:30 EST    2.38   2.35    4   68    5  42.3  39.2 1019.5 -9.9 -9.999 -99.9 -99.99 -9.99
2020/02/16 16:36 EST    2.29   2.24    4   91    5  41.9  39.2 1019.6 -9.9 -9.999 -99.9 -99.99 -9.99
2020/02/16 16:42 EST    2.20   2.16    4   98    5  41.7  39.2 1019.6 -9.9 -9.999 -99.9 -99.99 -9.99
2020/02/16 16:48 EST    2.12   2.07    5  102    6  41.2  39.2 1019.5 -9.9 -9.999 -99.9 -99.99 -9.99
2020/02/16 16:54 EST    2.03   2.00    4  122    5  41.0  39.2 1019.5 -9.9 -9.999 -99.9 -99.99 -9.99
2020/02/16 17:00 EST    1.95   1.92    3  118    6  41.0  39.2 1019.5 -9.9 -9.999 -99.9 -99.99 -9.99
2020/02/16 17:06 EST    1.86   1.87    4  108    5  40.6  39.2 1019.3 -9.9 -9.999 -99.9 -99.99 -9.99
2020/02/16 17:12 EST    1.78   1.82    4  120    5  40.6  39.2 1019.3 -9.9 -9.999 -99.9 -99.99 -9.99
2020/02/16 17:18 EST    1.70   1.65    6  131    7  41.0  39.4 1019.2 -9.9 -9.999 -99.9 -99.99 -9.99
2020/02/16 17:24 EST    1.63   1.62    5  133    7  41.0  39.4 1019.2 -9.9 -9.999 -99.9 -99.99 -9.99
2020/02/16 17:30 EST    1.55   1.60    6  138    8  40.8  39.4 1019.3 -9.9 -9.999 -99.9 -99.99 -9.99
2020/02/16 17:36 EST    1.48   1.51    4  134    6  40.6  39.4 1019.4 -9.9 -9.999 -99.9 -99.99 -9.99
2020/02/16 17:42 EST    1.40   1.42    4  128    6  40.5  39.4 1019.4 -9.9 -9.999 -99.9 -99.99 -9.99
2020/02/16 17:48 EST    1.33   1.42    4  117    6  40.3  39.4 1019.3 -9.9 -9.999 -99.9 -99.99 -9.99
2020/02/16 17:54 EST    1.26   1.35    4  118    5  39.7  39.4 1019.5 -9.9 -9.999 -99.9 -99.99 -9.99
2020/02/16 18:00 EST    1.19   1.30    2  131    4  39.7  39.4 1019.6 -9.9 -9.999 -99.9 -99.99 -9.99
2020/02/16 18:06 EST    1.13   1.26    4  117    5  39.6  39.4 1019.5 -9.9 -9.999 -99.9 -99.99 -9.99
2020/02/16 18:12 EST    1.06   1.19    5  118    6  39.6  39.4 1019.6 -9.9 -9.999 -99.9 -99.99 -9.99
2020/02/16 18:18 EST    0.99   1.17    4  117    5  39.6  39.4 1019.7 -9.9 -9.999 -99.9 -99.99 -9.99
2020/02/16 18:24 EST    0.93   1.12    4  116    5  39.2  39.4 1019.8 -9.9 -9.999 -99.9 -99.99 -9.99
2020/02/16 18:30 EST    0.87   1.05    4  108    5  39.2  39.4 1019.8 -9.9 -9.999 -99.9 -99.99 -9.99
2020/02/16 18:36 EST    0.81   1.03    4  109    5  39.0  39.4 1019.9 -9.9 -9.999 -99.9 -99.99 -9.99
2020/02/16 18:42 EST    0.75   0.97    3  116    5  39.0  39.6 1020.0 -9.9 -9.999 -99.9 -99.99 -9.99
2020/02/16 18:48 EST    0.69   0.93    2  117    4  38.8  39.6 1020.1 -9.9 -9.999 -99.9 -99.99 -9.99
2020/02/16 18:54 EST    0.63   0.88    3  120    4  38.8  39.6 1020.1 -9.9 -9.999 -99.9 -99.99 -9.99
2020/02/16 19:00 EST    0.58   0.84    4  122    4  39.0  39.6 1020.1 -9.9 -9.999 -99.9 -99.99 -9.99
2020/02/16 19:06 EST    0.53   0.81    3  128    3  38.8  39.6 1020.2 -9.9 -9.999 -99.9 -99.99 -9.99
2020/02/16 19:12 EST    0.48   0.76    3  104    4  38.8  39.6 1020.1 -9.9 -9.999 -99.9 -99.99 -9.99
2020/02/16 19:18 EST    0.43   0.73    2   99    4  39.0  39.6 1020.1 -9.9 -9.999 -99.9 -99.99 -9.99
2020/02/16 19:24 EST    0.39   0.70    1   93    3  38.8  39.6 1020.1 -9.9 -9.999 -99.9 -99.99 -9.99
2020/02/16 19:30 EST    0.35   0.66    3   94    3  39.0  39.6 1020.0 -9.9 -9.999 -99.9 -99.99 -9.99
2020/02/16 19:36 EST    0.32   0.61    3   72    3  39.2  39.6 1019.9 -9.9 -9.999 -99.9 -99.99 -9.99
2020/02/16 19:42 EST    0.28   0.57    3   76    4  39.0  39.6 1019.8 -9.9 -9.999 -99.9 -99.99 -9.99
2020/02/16 19:48 EST    0.26   0.53    2   78    3  39.0  39.7 1019.9 -9.9 -9.999 -99.9 -99.99 -9.99
2020/02/16 19:54 EST    0.23   0.49    2   78    2  39.0  39.7 1019.9 -9.9 -9.999 -99.9 -99.99 -9.99
2020/02/16 20:00 EST    0.22   0.43    2   77    3  39.0  39.7 1019.8 -9.9 -9.999 -99.9 -99.99 -9.99
2020/02/16 20:06 EST    0.21   0.39    3   97    3  39.0  39.6 1019.7 -9.9 -9.999 -99.9 -99.99 -9.99
2020/02/16 20:12 EST    0.20   0.37    3   91    4  38.5  39.6 1019.7 -9.9 -9.999 -99.9 -99.99 -9.99
2020/02/16 20:18 EST    0.20   0.33    2   82    3  38.7  39.6 1019.7 -9.9 -9.999 -99.9 -99.99 -9.99
2020/02/16 20:24 EST    0.20   0.33    2   84    3  38.7  39.6 1019.8 -9.9 -9.999 -99.9 -99.99 -9.99
2020/02/16 20:30 EST    0.21   0.31    1   90    2  38.5  39.6 1019.7 -9.9 -9.999 -99.9 -99.99 -9.99
2020/02/16 20:36 EST    0.23   0.31    2   80    3  38.7  39.7 1019.8 -9.9 -9.999 -99.9 -99.99 -9.99
2020/02/16 20:42 EST    0.26   0.32    2   96    2  38.7  39.7 1019.7 -9.9 -9.999 -99.9 -99.99 -9.99
2020/02/16 20:48 EST    0.29   0.31    2   98    2  38.3  39.7 1019.6 -9.9 -9.999 -99.9 -99.99 -9.99
2020/02/16 20:54 EST    0.32   0.38    2  106    2  38.1  39.7 1019.5 -9.9 -9.999 -99.9 -99.99 -9.99
2020/02/16 21:00 EST    0.37   0.39    2  115    3  37.8  39.7 1019.5 -9.9 -9.999 -99.9 -99.99 -9.99
2020/02/16 21:06 EST    0.41   0.43    2  187    2  37.6  39.7 1019.6 -9.9 -9.999 -99.9 -99.99 -9.99
2020/02/16 21:12 EST    0.47   0.45    0  182    2  37.6  39.7 1019.6 -9.9 -9.999 -99.9 -99.99 -9.99
2020/02/16 21:18 EST    0.53   0.50    1   85    2  37.6  39.6 1019.6 -9.9 -9.999 -99.9 -99.99 -9.99
2020/02/16 21:24 EST    0.60   0.56    1  108    2  37.8  39.6 1019.6 -9.9 -9.999 -99.9 -99.99 -9.99
2020/02/16 21:30 EST    0.67   0.62    0  109    1  37.4  39.6 1019.6 -9.9 -9.999 -99.9 -99.99 -9.99
2020/02/16 21:36 EST    0.74   0.68    0  109    0  37.4  39.6 1019.5 -9.9 -9.999 -99.9 -99.99 -9.99
2020/02/16 21:42 EST    0.83   0.76    2   66    2  37.9  39.6 1019.5 -9.9 -9.999 -99.9 -99.99 -9.99
2020/02/16 21:48 EST    0.91   0.86    1   41    2  38.1  39.6 1019.7 -9.9 -9.999 -99.9 -99.99 -9.99
2020/02/16 21:54 EST    1.00   0.93    0  352    1  37.9  39.6 1019.8 -9.9 -9.999 -99.9 -99.99 -9.99
2020/02/16 22:00 EST    1.10   1.03    2  286    2  37.9  39.7 1019.9 -9.9 -9.999 -99.9 -99.99 -9.99
2020/02/16 22:06 EST    1.20   1.14    2  297    2  38.1  39.9 1019.8 -9.9 -9.999 -99.9 -99.99 -9.99
2020/02/16 22:12 EST    1.30   1.23    1  252    2  38.1  39.9 1019.9 -9.9 -9.999 -99.9 -99.99 -9.99
2020/02/16 22:18 EST    1.40   1.34    0  242    2  37.9  39.9 1019.8 -9.9 -9.999 -99.9 -99.99 -9.99
2020/02/16 22:24 EST    1.51   1.45    2  221    2  37.9  39.9 1020.0 -9.9 -9.999 -99.9 -99.99 -9.99
2020/02/16 22:30 EST    1.61   1.57    1  227    2  37.9  39.9 1020.0 -9.9 -9.999 -99.9 -99.99 -9.99
2020/02/16 22:36 EST    1.72   1.67    2  222    2  37.9  39.7 1020.1 -9.9 -9.999 -99.9 -99.99 -9.99
2020/02/16 22:42 EST    1.84   1.79    3  219    3  37.9  39.7 1020.2 -9.9 -9.999 -99.9 -99.99 -9.99
2020/02/16 22:48 EST    1.95   1.94    3  220    4  37.9  39.7 1020.2 -9.9 -9.999 -99.9 -99.99 -9.99
2020/02/16 22:54 EST    2.06   2.06    3  229    3  38.3  39.6 1020.2 -9.9 -9.999 -99.9 -99.99 -9.99
2020/02/16 23:00 EST    2.18   2.21    3  248    4  37.9  39.6 1020.2 -9.9 -9.999 -99.9 -99.99 -9.99
2020/02/16 23:06 EST    2.29   2.33    3  264    3  37.9  39.6 1020.2 -9.9 -9.999 -99.9 -99.99 -9.99
2020/02/16 23:12 EST    2.40   2.48    2  273    3  38.1  39.6 1020.1 -9.9 -9.999 -99.9 -99.99 -9.99
2020/02/16 23:18 EST    2.52   2.62    2  290    3  38.1  39.6 1020.1 -9.9 -9.999 -99.9 -99.99 -9.99
2020/02/16 23:24 EST    2.63   2.79    2  296    3  38.1  39.6 1020.2 -9.9 -9.999 -99.9 -99.99 -9.99
2020/02/16 23:30 EST    2.75   2.89    2  281    2  38.1  39.6 1020.2 -9.9 -9.999 -99.9 -99.99 -9.99
2020/02/16 23:36 EST    2.86   3.03    3  304    3  38.1  39.7 1020.2 -9.9 -9.999 -99.9 -99.99 -9.99
2020/02/16 23:42 EST    2.97   3.17    2  312    3  38.1  39.7 1020.2 -9.9 -9.999 -99.9 -99.99 -9.99
2020/02/16 23:48 EST    3.08   3.28    1  314    2  38.3  39.7 1020.1 -9.9 -9.999 -99.9 -99.99 -9.99
2020/02/16 23:54 EST    3.19   3.41    0  294    1  38.3  39.7 1020.3 -9.9 -9.999 -99.9 -99.99 -9.99
2020/02/17 00:00 EST    3.30   3.51    1  286    2  38.5  39.7 1020.3 -9.9 -9.999 -99.9 -99.99 -9.99
2020/02/17 00:06 EST    3.40   3.64    2  308    3  38.7  39.7 1020.3 -9.9 -9.999 -99.9 -99.99 -9.99
2020/02/17 00:12 EST    3.51   3.74    0  312    2  38.5  39.7 1020.1 -9.9 -9.999 -99.9 -99.99 -9.99
2020/02/17 00:18 EST    3.61   3.87    0  155    1  38.5  39.7 1020.1 -9.9 -9.999 -99.9 -99.99 -9.99
2020/02/17 00:24 EST    3.71   3.99    1  191    2  38.7  39.7 1020.1 -9.9 -9.999 -99.9 -99.99 -9.99
2020/02/17 00:30 EST    3.80   4.10    1  195    2  38.7  39.7 1020.0 -9.9 -9.999 -99.9 -99.99 -9.99
2020/02/17 00:36 EST    3.90   4.21    1  196    2  38.5  39.7 1020.1 -9.9 -9.999 -99.9 -99.99 -9.99
2020/02/17 00:42 EST    3.99   4.34    1  224    1  38.5  39.7 1020.2 -9.9 -9.999 -99.9 -99.99 -9.99
2020/02/17 00:48 EST    4.08   4.44    1  218    2  38.3  39.7 1020.1 -9.9 -9.999 -99.9 -99.99 -9.99
2020/02/17 00:54 EST    4.16   4.53    1  233    2  38.1  39.7 1020.2 -9.9 -9.999 -99.9 -99.99 -9.99
2020/02/17 01:00 EST    4.25   4.61    2  261    2  38.3  39.7 1020.2 -9.9 -9.999 -99.9 -99.99 -9.99
2020/02/17 01:06 EST    4.32   4.71    3  276    3  38.3  39.7 1020.3 -9.9 -9.999 -99.9 -99.99 -9.99
2020/02/17 01:12 EST    4.40   4.78    3  282    3  38.7  39.7 1020.2 -9.9 -9.999 -99.9 -99.99 -9.99
2020/02/17 01:18 EST    4.47   4.82    2  256    3  38.7  39.7 1020.1 -9.9 -9.999 -99.9 -99.99 -9.99
2020/02/17 01:24 EST    4.53   4.92    2  246    2  38.8  39.7 1020.1 -9.9 -9.999 -99.9 -99.99 -9.99
2020/02/17 01:30 EST    4.59   4.95    3  227    3  38.5  39.6 1020.2 -9.9 -9.999 -99.9 -99.99 -9.99
2020/02/17 01:36 EST    4.64   5.00    3  219    3  38.3  39.6 1020.2 -9.9 -9.999 -99.9 -99.99 -9.99
2020/02/17 01:42 EST    4.69   5.06    3  233    3  38.5  39.4 1020.2 -9.9 -9.999 -99.9 -99.99 -9.99
2020/02/17 01:48 EST    4.73   5.08    3  240    3  38.5  39.4 1020.3 -9.9 -9.999 -99.9 -99.99 -9.99
2020/02/17 01:54 EST    4.77   5.13    2  233    3  38.3  39.4 1020.2 -9.9 -9.999 -99.9 -99.99 -9.99
2020/02/17 02:00 EST    4.80   5.13    2  260    3  38.3  39.4 1020.2 -9.9 -9.999 -99.9 -99.99 -9.99
2020/02/17 02:06 EST    4.82   5.18    3  275    3  38.1  39.2 1020.1 -9.9 -9.999 -99.9 -99.99 -9.99
2020/02/17 02:12 EST    4.84   5.22    2  274    3  38.5  39.2 1020.1 -9.9 -9.999 -99.9 -99.99 -9.99
2020/02/17 02:18 EST    4.85   5.20    2  261    3  38.7  39.2 1020.2 -9.9 -9.999 -99.9 -99.99 -9.99
2020/02/17 02:24 EST    4.86   5.25    2  265    3  38.7  39.2 1020.3 -9.9 -9.999 -99.9 -99.99 -9.99
2020/02/17 02:30 EST    4.85   5.25    1  267    3  38.8  39.2 1020.2 -9.9 -9.999 -99.9 -99.99 -9.99
2020/02/17 02:36 EST    4.84   5.25    1  291    2  38.7  39.2 1020.1 -9.9 -9.999 -99.9 -99.99 -9.99
2020/02/17 02:42 EST    4.83   5.25    2  284    2  38.5  39.0 1020.1 -9.9 -9.999 -99.9 -99.99 -9.99
2020/02/17 02:48 EST    4.80   5.22    3  291    3  38.8  39.0 1020.1 -9.9 -9.999 -99.9 -99.99 -9.99
2020/02/17 02:54 EST    4.77   5.16    3  296    3  38.8  39.0 1020.1 -9.9 -9.999 -99.9 -99.99 -9.99
2020/02/17 03:00 EST    4.74   5.11    2  296    3  38.8  39.0 1020.2 -9.9 -9.999 -99.9 -99.99 -9.99
2020/02/17 03:06 EST    4.70   5.06    3  280    4  38.8  39.0 1020.2 -9.9 -9.999 -99.9 -99.99 -9.99
2020/02/17 03:12 EST    4.65   4.96    3  280    4  39.0  39.0 1020.2 -9.9 -9.999 -99.9 -99.99 -9.99
2020/02/17 03:18 EST    4.59   4.87    3  280    3  39.0  39.0 1020.2 -9.9 -9.999 -99.9 -99.99 -9.99
2020/02/17 03:24 EST    4.54   4.82    3  273    4  39.0  39.0 1020.3 -9.9 -9.999 -99.9 -99.99 -9.99
2020/02/17 03:30 EST    4.47   4.71    3  263    4  39.0  39.0 1020.4 -9.9 -9.999 -99.9 -99.99 -9.99
2020/02/17 03:36 EST    4.40   4.63    2  267    4  39.0  39.0 1020.4 -9.9 -9.999 -99.9 -99.99 -9.99
2020/02/17 03:42 EST    4.33   4.55    2  282    3  38.8  39.0 1020.4 -9.9 -9.999 -99.9 -99.99 -9.99
2020/02/17 03:48 EST    4.26   4.48    3  294    3  38.8  39.0 1020.5 -9.9 -9.999 -99.9 -99.99 -9.99
2020/02/17 03:54 EST    4.18   4.37    3  287    4  38.8  39.0 1020.5 -9.9 -9.999 -99.9 -99.99 -9.99
2020/02/17 04:00 EST    4.10   4.30    2  283    3  38.7  39.0 1020.6 -9.9 -9.999 -99.9 -99.99 -9.99
2020/02/17 04:06 EST    4.01   4.22    2  293    2  38.7  39.0 1020.8 -9.9 -9.999 -99.9 -99.99 -9.99
2020/02/17 04:12 EST    3.92   4.11    1  283    2  38.7  39.0 1020.9 -9.9 -9.999 -99.9 -99.99 -9.99
2020/02/17 04:18 EST    3.84   4.00    2  233    2  38.8  39.0 1021.1 -9.9 -9.999 -99.9 -99.99 -9.99
2020/02/17 04:24 EST    3.75   3.89    2  235    2  39.0  39.0 1021.1 -9.9 -9.999 -99.9 -99.99 -9.99
2020/02/17 04:30 EST    3.65   3.79    0  264    2  38.8  39.0 1021.2 -9.9 -9.999 -99.9 -99.99 -9.99
2020/02/17 04:36 EST    3.56   3.66    2  323    3  38.7  39.0 1021.2 -9.9 -9.999 -99.9 -99.99 -9.99
2020/02/17 04:42 EST    3.47   3.56    3  291    4  38.7  39.0 1021.3 -9.9 -9.999 -99.9 -99.99 -9.99
2020/02/17 04:48 EST    3.38   3.48    3  292    4  38.8  39.0 1021.3 -9.9 -9.999 -99.9 -99.99 -9.99
2020/02/17 04:54 EST    3.28   3.36    4  287    5  38.8  39.0 1021.3 -9.9 -9.999 -99.9 -99.99 -9.99
2020/02/17 05:00 EST    3.19   3.27    5  298    5  39.0  39.0 1021.5 -9.9 -9.999 -99.9 -99.99 -9.99
2020/02/17 05:06 EST    3.10   3.20    5  297    5  38.8  39.0 1021.6 -9.9 -9.999 -99.9 -99.99 -9.99
2020/02/17 05:12 EST    3.01   3.10    5  300    6  38.8  39.0 1021.6 -9.9 -9.999 -99.9 -99.99 -9.99
2020/02/17 05:18 EST    2.92   2.99    5  304    5  38.7  39.0 1021.7 -9.9 -9.999 -99.9 -99.99 -9.99
2020/02/17 05:24 EST    2.83   2.91    6  305    7  38.7  39.0 1021.7 -9.9 -9.999 -99.9 -99.99 -9.99
2020/02/17 05:30 EST    2.74   2.86    7  310    7  38.5  39.0 1021.7 -9.9 -9.999 -99.9 -99.99 -9.99
2020/02/17 05:36 EST    2.65   2.74    5  316    7  38.5  39.0 1021.8 -9.9 -9.999 -99.9 -99.99 -9.99
2020/02/17 05:42 EST    2.56   2.65    5  319    6  38.3  39.0 1021.9 -9.9 -9.999 -99.9 -99.99 -9.99
2020/02/17 05:48 EST    2.47   2.59    6  328    8  38.5  38.8 1021.9 -9.9 -9.999 -99.9 -99.99 -9.99
2020/02/17 05:54 EST    2.38   2.54    5  327    7  38.5  38.8 1022.0 -9.9 -9.999 -99.9 -99.99 -9.99
2020/02/17 06:00 EST    2.30   2.43    6  334    7  38.8  38.8 1022.1 -9.9 -9.999 -99.9 -99.99 -9.99
2020/02/17 06:06 EST    2.21   2.35    6  334    8  38.7  38.8 1022.1 -9.9 -9.999 -99.9 -99.99 -9.99
2020/02/17 06:12 EST    2.12   2.30    6  333    7  38.7  38.8 1022.3 -9.9 -9.999 -99.9 -99.99 -9.99
2020/02/17 06:18 EST    2.04   2.22    6  332    8  38.7  38.8 1022.4 -9.9 -9.999 -99.9 -99.99 -9.99
2020/02/17 06:24 EST    1.95   2.13    6  333    8  38.5  38.8 1022.5 -9.9 -9.999 -99.9 -99.99 -9.99
2020/02/17 06:30 EST    1.86   2.03    5  329    8  38.3  38.8 1022.6 -9.9 -9.999 -99.9 -99.99 -9.99
2020/02/17 06:36 EST    1.78   1.96    6  335    8  38.3  38.8 1022.8 -9.9 -9.999 -99.9 -99.99 -9.99
2020/02/17 06:42 EST    1.69   1.86    5  334    7  38.3  38.8 1022.9 -9.9 -9.999 -99.9 -99.99 -9.99
2020/02/17 06:48 EST    1.61   1.76    5  335    7  38.3  38.8 1023.0 -9.9 -9.999 -99.9 -99.99 -9.99
2020/02/17 06:54 EST    1.52   1.70    6  337    7  38.5  38.8 1023.1 -9.9 -9.999 -99.9 -99.99 -9.99
2020/02/17 07:00 EST    1.44   1.64    4  335    8  38.5  38.8 1023.2 -9.9 -9.999 -99.9 -99.99 -9.99
2020/02/17 07:06 EST    1.35   1.53    5  340    6  38.5  38.8 1023.3 -9.9 -9.999 -99.9 -99.99 -9.99
2020/02/17 07:12 EST    1.27   1.47    4  349    6  38.7  38.8 1023.4 -9.9 -9.999 -99.9 -99.99 -9.99
2020/02/17 07:18 EST    1.19   1.45    4  343    5  38.7  38.8 1023.5 -9.9 -9.999 -99.9 -99.99 -9.99
2020/02/17 07:24 EST    1.11   1.39    5  343    7  39.0  39.0 1023.6 -9.9 -9.999 -99.9 -99.99 -9.99
2020/02/17 07:30 EST    1.03   1.32    5  338    7  39.4  39.0 1023.8 -9.9 -9.999 -99.9 -99.99 -9.99
2020/02/17 07:36 EST    0.95   1.27    5  339    7  39.6  39.2 1023.9 -9.9 -9.999 -99.9 -99.99 -9.99
2020/02/17 07:42 EST    0.88   1.23    4  345    7  39.9  39.2 1024.1 -9.9 -9.999 -99.9 -99.99 -9.99
2020/02/17 07:48 EST    0.81   1.15    7  342   11  39.9  39.2 1024.3 -9.9 -9.999 -99.9 -99.99 -9.99
2020/02/17 07:54 EST    0.74   1.10    6  348   10  40.1  39.2 1024.4 -9.9 -9.999 -99.9 -99.99 -9.99
2020/02/17 08:00 EST    0.68   1.04    6  351   10  40.1  39.2 1024.5 -9.9 -9.999 -99.9 -99.99 -9.99
2020/02/17 08:06 EST    0.61   0.98    9  342   10  40.3  39.4 1024.6 -9.9 -9.999 -99.9 -99.99 -9.99
2020/02/17 08:12 EST    0.56   0.92    6  341    9  40.6  39.4 1024.8 -9.9 -9.999 -99.9 -99.99 -9.99
2020/02/17 08:18 EST    0.50   0.88    8  335   12  40.5  39.4 1024.9 -9.9 -9.999 -99.9 -99.99 -9.99
2020/02/17 08:24 EST    0.46   0.83    6  346   11  40.8  39.4 1024.9 -9.9 -9.999 -99.9 -99.99 -9.99
2020/02/17 08:30 EST    0.41   0.81    8  343   11  40.1  39.4 1024.9 -9.9 -9.999 -99.9 -99.99 -9.99
2020/02/17 08:36 EST    0.38   0.77    9  334   12  40.3  39.4 1024.9 -9.9 -9.999 -99.9 -99.99 -9.99
2020/02/17 08:42 EST    0.35   0.75    9  336   11  40.3  39.4 1025.0 -9.9 -9.999 -99.9 -99.99 -9.99
2020/02/17 08:48 EST    0.32   0.72    9  340   12  40.5  39.4 1025.1 -9.9 -9.999 -99.9 -99.99 -9.99
2020/02/17 08:54 EST    0.30   0.72    9  341   13  40.3  39.4 1025.2 -9.9 -9.999 -99.9 -99.99 -9.99
2020/02/17 09:00 EST    0.29   0.72    7  328   11  40.5  39.6 1025.3 -9.9 -9.999 -99.9 -99.99 -9.99
2020/02/17 09:06 EST    0.28   0.67    9  328   12  39.9  39.6 1025.2 -9.9 -9.999 -99.9 -99.99 -9.99
2020/02/17 09:12 EST    0.28   0.68   10  329   11  40.3  39.6 1025.2 -9.9 -9.999 -99.9 -99.99 -9.99
2020/02/17 09:18 EST    0.29   0.61   10  342   12  40.3  39.6 1025.1 -9.9 -9.999 -99.9 -99.99 -9.99
2020/02/17 09:24 EST    0.30   0.66    7  337   12  40.8  39.6 1025.0 -9.9 -9.999 -99.9 -99.99 -9.99
2020/02/17 09:30 EST    0.32   0.64    8  337   12  40.5  39.6 1025.0 -9.9 -9.999 -99.9 -99.99 -9.99
2020/02/17 09:36 EST    0.35   0.64   11  324   13  40.1  39.6 1025.1 -9.9 -9.999 -99.9 -99.99 -9.99
2020/02/17 09:42 EST    0.38   0.68    8  334   11  40.6  39.6 1025.1 -9.9 -9.999 -99.9 -99.99 -9.99
2020/02/17 09:48 EST    0.42   0.69   10  328   12  40.6  39.6 1025.2 -9.9 -9.999 -99.9 -99.99 -9.99
2020/02/17 09:54 EST    0.46   0.76    9  333   12  41.0  39.6 1025.3 -9.9 -9.999 -99.9 -99.99 -9.99
2020/02/17 10:00 EST    0.51   0.83    9  328   11  41.0  39.6 1025.3 -9.9 -9.999 -99.9 -99.99 -9.99
2020/02/17 10:06 EST    0.57   0.87    8  336   13  41.2  39.7 1025.2 -9.9 -9.999 -99.9 -99.99 -9.99
2020/02/17 10:12 EST    0.63   0.98    9  330   11  41.4  39.7 1025.2 -9.9 -9.999 -99.9 -99.99 -9.99
2020/02/17 10:18 EST    0.69   1.04    9  339   10  41.5  39.7 1025.1 -9.9 -9.999 -99.9 -99.99 -9.99
2020/02/17 10:24 EST    0.76   1.11    8  346   11  42.1  39.7 1025.1 -9.9 -9.999 -99.9 -99.99 -9.99
2020/02/17 10:30 EST    0.83   1.15    9  349   12  42.4  39.7 1025.2 -9.9 -9.999 -99.9 -99.99 -9.99
2020/02/17 10:36 EST    0.91   1.25    8  347   11  42.3  39.9 1025.1 -9.9 -9.999 -99.9 -99.99 -9.99
2020/02/17 10:42 EST    0.99   1.34    8  342   11  43.2  39.9 1025.1 -9.9 -9.999 -99.9 -99.99 -9.99
2020/02/17 10:48 EST    1.08   1.37    7  346   11  43.2  39.9 1025.2 -9.9 -9.999 -99.9 -99.99 -9.99
2020/02/17 10:54 EST    1.16   1.43    9  348   12  42.6  39.9 1025.2 -9.9 -9.999 -99.9 -99.99 -9.99
2020/02/17 11:00 EST    1.25   1.51   10  347   12  43.3  39.9 1025.2 -9.9 -9.999 -99.9 -99.99 -9.99
2020/02/17 11:06 EST    1.34   1.62   10  337   12  43.0  39.9 1025.3 -9.9 -9.999 -99.9 -99.99 -9.99
2020/02/17 11:12 EST    1.43   1.68    9  349   12  43.3  40.1 1025.3 -9.9 -9.999 -99.9 -99.99 -9.99
2020/02/17 11:18 EST    1.53   1.79    7  344   12  43.9  39.9 1025.3 -9.9 -9.999 -99.9 -99.99 -9.99
2020/02/17 11:24 EST    1.62   1.85    8  343   11  43.7  40.1 1025.1 -9.9 -9.999 -99.9 -99.99 -9.99
2020/02/17 11:30 EST    1.71   1.94    9  344   12  43.5  39.9 1025.2 -9.9 -9.999 -99.9 -99.99 -9.99
2020/02/17 11:36 EST    1.81   2.07    7  335   12  44.1  39.9 1025.3 -9.9 -9.999 -99.9 -99.99 -9.99
2020/02/17 11:42 EST    1.91   2.16    6  336   11  44.2  39.9 1025.3 -9.9 -9.999 -99.9 -99.99 -9.99
2020/02/17 11:48 EST    2.00   2.24    9  336   11  43.9  40.1 1025.3 -9.9 -9.999 -99.9 -99.99 -9.99
2020/02/17 11:54 EST    2.10   2.35    9  338   11  44.1  40.1 1025.3 -9.9 -9.999 -99.9 -99.99 -9.99
2020/02/17 12:00 EST    2.19   2.43    9  332   12  44.1  39.9 1025.3 -9.9 -9.999 -99.9 -99.99 -9.99
2020/02/17 12:06 EST    2.29   2.55    8  330   13  44.4  40.1 1025.2 -9.9 -9.999 -99.9 -99.99 -9.99
2020/02/17 12:12 EST    2.38   2.65    9  336   12  44.4  40.1 1025.1 -9.9 -9.999 -99.9 -99.99 -9.99
2020/02/17 12:18 EST    2.48   2.76    7  350   10  44.8  40.1 1025.2 -9.9 -9.999 -99.9 -99.99 -9.99
2020/02/17 12:24 EST    2.57   2.84    6  346    9  44.8  39.9 1025.2 -9.9 -9.999 -99.9 -99.99 -9.99
2020/02/17 12:30 EST    2.66   2.95    7  349   10  44.8  39.9 1025.1 -9.9 -9.999 -99.9 -99.99 -9.99
2020/02/17 12:36 EST    2.75   2.99    5  356    9  45.0  40.1 1025.1 -9.9 -9.999 -99.9 -99.99 -9.99
2020/02/17 12:42 EST    2.84   3.09    6  356    8  45.1  40.3 1025.0 -9.9 -9.999 -99.9 -99.99 -9.99
2020/02/17 12:48 EST    2.93   3.14    6   16    9  44.8  40.3 1025.0 -9.9 -9.999 -99.9 -99.99 -9.99
2020/02/17 12:54 EST    3.01   3.22    6    7    8  44.8  40.3 1025.0 -9.9 -9.999 -99.9 -99.99 -9.99
2020/02/17 13:00 EST    3.10   3.29    4    3    8  44.6  40.3 1024.9 -9.9 -9.999 -99.9 -99.99 -9.99
2020/02/17 13:06 EST    3.18   3.38    5  338    8  45.0  40.3 1024.8 -9.9 -9.999 -99.9 -99.99 -9.99
2020/02/17 13:12 EST    3.26   3.43    4  334    6  45.0  40.3 1024.8 -9.9 -9.999 -99.9 -99.99 -9.99
2020/02/17 13:18 EST    3.33   3.52    0  277    6  45.9  40.3 1024.8 -9.9 -9.999 -99.9 -99.99 -9.99
2020/02/17 13:24 EST    3.40   3.61    2  308    4  45.7  40.3 1024.8 -9.9 -9.999 -99.9 -99.99 -9.99
2020/02/17 13:30 EST    3.47   3.68    4  236    5  43.7  40.3 1024.8 -9.9 -9.999 -99.9 -99.99 -9.99
2020/02/17 13:36 EST    3.54   3.73    5  231    5  43.3  40.3 1024.8 -9.9 -9.999 -99.9 -99.99 -9.99
2020/02/17 13:42 EST    3.60   3.80    5  229    5  43.0  40.3 1024.6 -9.9 -9.999 -99.9 -99.99 -9.99
2020/02/17 13:48 EST    3.66   3.85    4  229    5  43.2  40.3 1024.6 -9.9 -9.999 -99.9 -99.99 -9.99
2020/02/17 13:54 EST    3.71   3.91    5  217    5  42.4  40.3 1024.6 -9.9 -9.999 -99.9 -99.99 -9.99
2020/02/17 14:00 EST    3.76   3.98    3  229    5  43.0  40.3 1024.7 -9.9 -9.999 -99.9 -99.99 -9.99
2020/02/17 14:06 EST    3.81   4.00    3  228    4  43.7  40.3 1024.7 -9.9 -9.999 -99.9 -99.99 -9.99
2020/02/17 14:12 EST    3.84   4.04    1  204    2  44.1  40.3 1024.8 -9.9 -9.999 -99.9 -99.99 -9.99
2020/02/17 14:18 EST    3.88   4.10    1  167    2  45.0  40.3 1024.8 -9.9 -9.999 -99.9 -99.99 -9.99
2020/02/17 14:24 EST    3.91   4.16    1   90    1  46.4  40.5 1024.8 -9.9 -9.999 -99.9 -99.99 -9.99
2020/02/17 14:30 EST    3.93   4.18    1   52    2  47.8  40.3 1024.8 -9.9 -9.999 -99.9 -99.99 -9.99
2020/02/17 14:36 EST    3.95   4.21    1  107    2  48.6  40.3 1024.9 -9.9 -9.999 -99.9 -99.99 -9.99
2020/02/17 14:42 EST    3.96   4.26    1  185    1  48.2  40.3 1025.0 -9.9 -9.999 -99.9 -99.99 -9.99
2020/02/17 14:48 EST    3.96   4.30    2  235    2  48.2  40.3 1025.1 -9.9 -9.999 -99.9 -99.99 -9.99
2020/02/17 14:54 EST    3.96   4.29    2  211    2  47.8  40.3 1025.2 -9.9 -9.999 -99.9 -99.99 -9.99
2020/02/17 15:00 EST    3.96   4.31    2  219    2  48.0  40.3 1025.3 -9.9 -9.999 -99.9 -99.99 -9.99
2020/02/17 15:06 EST    3.94   4.29    1  206    2  48.0  40.3 1025.3 -9.9 -9.999 -99.9 -99.99 -9.99
2020/02/17 15:12 EST    3.92   4.27    1  218    1  48.6  40.3 1025.3 -9.9 -9.999 -99.9 -99.99 -9.99
2020/02/17 15:18 EST    3.90   4.24    3  179    4  45.9  40.3 1025.3 -9.9 -9.999 -99.9 -99.99 -9.99
2020/02/17 15:24 EST    3.87   4.23    3  157    3  45.9  40.3 1025.3 -9.9 -9.999 -99.9 -99.99 -9.99
2020/02/17 15:30 EST    3.84   4.16    2  146    3  46.2  40.3 1025.2 -9.9 -9.999 -99.9 -99.99 -9.99
2020/02/17 15:36 EST    3.79   4.09    1  138    2  46.6  40.5 1025.2 -9.9 -9.999 -99.9 -99.99 -9.99
2020/02/17 15:42 EST    3.75   4.05    0  143    1  46.8  40.5 1025.1 -9.9 -9.999 -99.9 -99.99 -9.99
2020/02/17 15:48 EST    3.70   4.00    1  144    1  46.8  40.5 1025.0 -9.9 -9.999 -99.9 -99.99 -9.99
2020/02/17 15:54 EST    3.65   3.93    4  121    5  47.1  40.5 1025.0 -9.9 -9.999 -99.9 -99.99 -9.99
2020/02/17 16:00 EST    3.59   3.87    4  119    5  47.5  40.5 1025.1 -9.9 -9.999 -99.9 -99.99 -9.99
2020/02/17 16:06 EST    3.53   3.83    5  106    6  47.5  40.5 1025.1 -9.9 -9.999 -99.9 -99.99 -9.99
2020/02/17 16:12 EST    3.46   3.77    4  116    7  47.5  40.5 1025.2 -9.9 -9.999 -99.9 -99.99 -9.99
2020/02/17 16:18 EST    3.39   3.73    4  112    5  47.3  40.3 1025.3 -9.9 -9.999 -99.9 -99.99 -9.99
2020/02/17 16:24 EST    3.32   3.67    4  129    6  47.1  40.3 1025.3 -9.9 -9.999 -99.9 -99.99 -9.99
2020/02/17 16:30 EST    3.25   3.60    4  125    5  47.1  40.3 1025.3 -9.9 -9.999 -99.9 -99.99 -9.99
2020/02/17 16:36 EST    3.18   3.54    5  132    6  46.2  40.3 1025.3 -9.9 -9.999 -99.9 -99.99 -9.99
2020/02/17 16:42 EST    3.10   3.47    5  124    6  46.2  40.3 1025.3 -9.9 -9.999 -99.9 -99.99 -9.99
2020/02/17 16:48 EST    3.03   3.41    5  146    7  45.3  40.3 1025.3 -9.9 -9.999 -99.9 -99.99 -9.99
2020/02/17 16:54 EST    2.95   3.30    6  146    7  45.0  40.3 1025.4 -9.9 -9.999 -99.9 -99.99 -9.99
2020/02/17 17:00 EST    2.87   3.24    5  150    7  45.0  40.3 1025.4 -9.9 -9.999 -99.9 -99.99 -9.99
2020/02/17 17:06 EST    2.80   3.15    6  148    8  44.8  40.3 1025.4 -9.9 -9.999 -99.9 -99.99 -9.99
2020/02/17 17:12 EST    2.72   3.07    7  154    9  44.2  40.3 1025.5 -9.9 -9.999 -99.9 -99.99 -9.99
2020/02/17 17:18 EST    2.64   3.00    6  154    8  44.1  40.3 1025.5 -9.9 -9.999 -99.9 -99.99 -9.99
2020/02/17 17:24 EST    2.56   2.92    7  160    8  43.9  40.3 1025.5 -9.9 -9.999 -99.9 -99.99 -9.99
2020/02/17 17:30 EST    2.49   2.84    6  158    8  43.7  40.3 1025.7 -9.9 -9.999 -99.9 -99.99 -9.99
2020/02/17 17:36 EST    2.41   2.79    7  162    8  43.5  40.3 1025.9 -9.9 -9.999 -99.9 -99.99 -9.99
2020/02/17 17:42 EST    2.34   2.73    6  152    7  43.3  40.3 1025.9 -9.9 -9.999 -99.9 -99.99 -9.99
2020/02/17 17:48 EST    2.26   2.66    6  155    7  43.3  40.3 1026.0 -9.9 -9.999 -99.9 -99.99 -9.99
2020/02/17 17:54 EST    2.19   2.59    5  159    7  43.0  40.3 1026.1 -9.9 -9.999 -99.9 -99.99 -9.99
2020/02/17 18:00 EST    2.12   2.53    7  170    8  43.3  40.3 1026.2 -9.9 -9.999 -99.9 -99.99 -9.99
2020/02/17 18:06 EST    2.04   2.48    6  170    7  42.8  40.3 1026.3 -9.9 -9.999 -99.9 -99.99 -9.99
2020/02/17 18:12 EST    1.97   2.41    6  167    6  42.4  40.3 1026.3 -9.9 -9.999 -99.9 -99.99 -9.99
2020/02/17 18:18 EST    1.90   2.35    6  164    7  42.6  40.3 1026.3 -9.9 -9.999 -99.9 -99.99 -9.99
2020/02/17 18:24 EST    1.83   2.27    5  154    6  42.4  40.3 1026.3 -9.9 -9.999 -99.9 -99.99 -9.99
2020/02/17 18:30 EST    1.76   2.24    5  169    6  42.6  40.3 1026.3 -9.9 -9.999 -99.9 -99.99 -9.99
2020/02/17 18:36 EST    1.69   2.17    6  174    6  42.3  40.3 1026.3 -9.9 -9.999 -99.9 -99.99 -9.99
2020/02/17 18:42 EST    1.62   2.11    5  169    6  41.7  40.3 1026.4 -9.9 -9.999 -99.9 -99.99 -9.99
2020/02/17 18:48 EST    1.55   2.06    4  161    5  41.9  40.3 1026.4 -9.9 -9.999 -99.9 -99.99 -9.99
2020/02/17 18:54 EST    1.48   2.01    5  177    6  42.3  40.3 1026.5 -9.9 -9.999 -99.9 -99.99 -9.99
2020/02/17 19:00 EST    1.41   1.95    5  174    6  42.1  40.5 1026.6 -9.9 -9.999 -99.9 -99.99 -9.99
2020/02/17 19:06 EST    1.34   1.89    5  172    5  41.7  40.5 1026.8 -9.9 -9.999 -99.9 -99.99 -9.99
2020/02/17 19:12 EST    1.27   1.84    4  187    5  41.9  40.5 1027.0 -9.9 -9.999 -99.9 -99.99 -9.99
2020/02/17 19:18 EST    1.20   1.75    4  198    5  42.3  40.5 1027.0 -9.9 -9.999 -99.9 -99.99 -9.99
2020/02/17 19:24 EST    1.13   1.69    5  194    5  42.4  40.5 1027.0 -9.9 -9.999 -99.9 -99.99 -9.99
2020/02/17 19:30 EST    1.07   1.62    4  200    5  42.3  40.5 1027.0 -9.9 -9.999 -99.9 -99.99 -9.99
2020/02/17 19:36 EST    1.00   1.55    4  208    5  41.7  40.5 1027.0 -9.9 -9.999 -99.9 -99.99 -9.99
2020/02/17 19:42 EST    0.93   1.48    2  200    3  41.0  40.6 1027.0 -9.9 -9.999 -99.9 -99.99 -9.99
2020/02/17 19:48 EST    0.87   1.39    3  193    3  41.4  40.8 1027.0 -9.9 -9.999 -99.9 -99.99 -9.99
2020/02/17 19:54 EST    0.81   1.34    3  182    4  41.2  40.8 1027.1 -9.9 -9.999 -99.9 -99.99 -9.99
2020/02/17 20:00 EST    0.74   1.27    2  181    4  41.0  40.8 1027.1 -9.9 -9.999 -99.9 -99.99 -9.99
2020/02/17 20:06 EST    0.69   1.21    3  129    4  41.4  40.6 1027.1 -9.9 -9.999 -99.9 -99.99 -9.99
2020/02/17 20:12 EST    0.63   1.13    4   70    5  40.8  40.8 1027.3 -9.9 -9.999 -99.9 -99.99 -9.99
2020/02/17 20:18 EST    0.57   1.10    5   76    7  41.5  40.8 1027.4 -9.9 -9.999 -99.9 -99.99 -9.99
2020/02/17 20:24 EST    0.52   1.06    4   77    6  41.2  40.8 1027.5 -9.9 -9.999 -99.9 -99.99 -9.99
2020/02/17 20:30 EST    0.48   1.00    6  101    8  41.0  40.8 1027.6 -9.9 -9.999 -99.9 -99.99 -9.99
2020/02/17 20:36 EST    0.44   0.94    5  124    8  40.8  40.8 1027.7 -9.9 -9.999 -99.9 -99.99 -9.99
2020/02/17 20:42 EST    0.40   0.93    5  123    7  40.8  40.8 1028.0 -9.9 -9.999 -99.9 -99.99 -9.99
2020/02/17 20:48 EST    0.36   0.90    5  144    7  41.0  40.8 1027.9 -9.9 -9.999 -99.9 -99.99 -9.99
2020/02/17 20:54 EST    0.34   0.85    4  145    6  41.2  41.0 1027.9 -9.9 -9.999 -99.9 -99.99 -9.99
2020/02/17 21:00 EST    0.31   0.82    4  153    5  41.4  41.0 1027.9 -9.9 -9.999 -99.9 -99.99 -9.99
2020/02/17 21:06 EST    0.30   0.82    4  139    6  41.2  41.0 1027.9 -9.9 -9.999 -99.9 -99.99 -9.99
2020/02/17 21:12 EST    0.28   0.81    4  104    5  40.3  40.8 1027.8 -9.9 -9.999 -99.9 -99.99 -9.99
2020/02/17 21:18 EST    0.28   0.80    4   96    5  40.5  40.8 1027.9 -9.9 -9.999 -99.9 -99.99 -9.99
2020/02/17 21:24 EST    0.28   0.80    3   75    5  40.8  40.8 1028.1 -9.9 -9.999 -99.9 -99.99 -9.99
2020/02/17 21:30 EST    0.29   0.82    5   44    8  40.3  40.8 1028.2 -9.9 -9.999 -99.9 -99.99 -9.99
2020/02/17 21:36 EST    0.30   0.82    4   73    7  40.8  40.8 1028.1 -9.9 -9.999 -99.9 -99.99 -9.99
2020/02/17 21:42 EST    0.32   0.83    4   71    6  40.8  40.8 1028.1 -9.9 -9.999 -99.9 -99.99 -9.99
2020/02/17 21:48 EST    0.35   0.84    4   74    5  40.8  40.8 1028.1 -9.9 -9.999 -99.9 -99.99 -9.99
2020/02/17 21:54 EST    0.39   0.90    5   64    7  40.6  40.8 1028.1 -9.9 -9.999 -99.9 -99.99 -9.99
2020/02/17 22:00 EST    0.43   0.92    5   64    6  40.6  40.8 1028.2 -9.9 -9.999 -99.9 -99.99 -9.99
2020/02/17 22:06 EST    0.47   0.92    5   55    5  40.3  40.6 1028.3 -9.9 -9.999 -99.9 -99.99 -9.99
2020/02/17 22:12 EST    0.53   0.98    4   57    5  40.3  40.6 1028.4 -9.9 -9.999 -99.9 -99.99 -9.99
2020/02/17 22:18 EST    0.58   1.04    4   57    6  40.1  40.6 1028.4 -9.9 -9.999 -99.9 -99.99 -9.99
2020/02/17 22:24 EST    0.65   1.09    5   55    5  40.1  40.8 1028.5 -9.9 -9.999 -99.9 -99.99 -9.99
2020/02/17 22:30 EST    0.72   1.16    5   62    5  40.1  40.6 1028.5 -9.9 -9.999 -99.9 -99.99 -9.99
2020/02/17 22:36 EST    0.79   1.21    4   65    5  40.3  40.6 1028.5 -9.9 -9.999 -99.9 -99.99 -9.99
2020/02/17 22:42 EST    0.87   1.31    5   68    7  40.6  40.6 1028.6 -9.9 -9.999 -99.9 -99.99 -9.99
2020/02/17 22:48 EST    0.96   1.39    5   70    6  40.5  40.6 1028.7 -9.9 -9.999 -99.9 -99.99 -9.99
2020/02/17 22:54 EST    1.05   1.47    6   54    9  39.9  40.8 1028.8 -9.9 -9.999 -99.9 -99.99 -9.99
2020/02/17 23:00 EST    1.14   1.54    5   53    8  39.7  40.8 1028.8 -9.9 -9.999 -99.9 -99.99 -9.99
2020/02/17 23:06 EST    1.23   1.67    6   43    8  39.9  40.8 1028.9 -9.9 -9.999 -99.9 -99.99 -9.99
2020/02/17 23:12 EST    1.33   1.74    8   51   10  39.7  40.8 1028.9 -9.9 -9.999 -99.9 -99.99 -9.99
2020/02/17 23:18 EST    1.43   1.83   10   49   13  40.1  40.8 1028.9 -9.9 -9.999 -99.9 -99.99 -9.99
2020/02/17 23:24 EST    1.54   1.91   10   50   13  39.9  40.8 1028.7 -9.9 -9.999 -99.9 -99.99 -9.99
2020/02/17 23:30 EST    1.64   2.05   11   50   14  39.7  40.8 1028.7 -9.9 -9.999 -99.9 -99.99 -9.99
2020/02/17 23:36 EST    1.75   2.15   10   58   14  39.7  40.8 1028.8 -9.9 -9.999 -99.9 -99.99 -9.99
2020/02/17 23:42 EST    1.85   2.25   12   68   17  39.6  40.8 1028.9 -9.9 -9.999 -99.9 -99.99 -9.99
2020/02/17 23:48 EST    1.96   2.37   10   68   14  39.2  40.8 1028.8 -9.9 -9.999 -99.9 -99.99 -9.99
2020/02/17 23:54 EST    2.07   2.52   11   74   19  39.4  40.8 1028.8 -9.9 -9.999 -99.9 -99.99 -9.99
2020/02/18 00:00 EST    2.18   2.62   13   77   17  39.4  40.6 1028.8 -9.9 -9.999 -99.9 -99.99 -9.99
2020/02/18 00:06 EST    2.29   2.75   13   75   21  39.4  40.6 1028.8 -9.9 -9.999 -99.9 -99.99 -9.99
2020/02/18 00:12 EST    2.40   2.89   14   78   19  39.6  40.6 1028.9 -9.9 -9.999 -99.9 -99.99 -9.99
2020/02/18 00:18 EST    2.51   3.00   15   76   20  39.6  40.6 1028.9 -9.9 -9.999 -99.9 -99.99 -9.99
2020/02/18 00:24 EST    2.62   3.15   13   79   20  39.6  40.6 1028.9 -9.9 -9.999 -99.9 -99.99 -9.99
2020/02/18 00:30 EST    2.73   3.26   12   72   19  39.4  40.8 1028.9 -9.9 -9.999 -99.9 -99.99 -9.99
2020/02/18 00:36 EST    2.84   3.41   15   80   18  39.4  40.8 1029.1 -9.9 -9.999 -99.9 -99.99 -9.99
2020/02/18 00:42 EST    2.95   3.53   12   82   19  39.2  40.6 1029.2 -9.9 -9.999 -99.9 -99.99 -9.99
2020/02/18 00:48 EST    3.06   3.65   14   81   18  39.2  40.6 1029.2 -9.9 -9.999 -99.9 -99.99 -9.99
2020/02/18 00:54 EST    3.16   3.77   14   73   21  39.2  40.6 1029.1 -9.9 -9.999 -99.9 -99.99 -9.99
2020/02/18 01:00 EST    3.26   3.90   14   79   19  39.2  40.6 1029.1 -9.9 -9.999 -99.9 -99.99 -9.99
2020/02/18 01:06 EST    3.37   4.02   14   76   19  39.2  40.6 1029.3 -9.9 -9.999 -99.9 -99.99 -9.99
2020/02/18 01:12 EST    3.47   4.14   14   78   19  39.2  40.6 1029.4 -9.9 -9.999 -99.9 -99.99 -9.99
2020/02/18 01:18 EST    3.57   4.25   11   79   17  39.2  40.6 1029.3 -9.9 -9.999 -99.9 -99.99 -9.99
2020/02/18 01:24 EST    3.66   4.37   13   81   19  39.2  40.6 1029.1 -9.9 -9.999 -99.9 -99.99 -9.99
2020/02/18 01:30 EST    3.76   4.46   14   80   20  39.2  40.6 1029.1 -9.9 -9.999 -99.9 -99.99 -9.99
2020/02/18 01:36 EST    3.85   4.57   15   79   18  39.2  40.6 1029.1 -9.9 -9.999 -99.9 -99.99 -9.99
2020/02/18 01:42 EST    3.94   4.67   14   79   20  39.2  40.6 1029.0 -9.9 -9.999 -99.9 -99.99 -9.99
2020/02/18 01:48 EST    4.02   4.77   16   78   21  39.2  40.6 1028.8 -9.9 -9.999 -99.9 -99.99 -9.99
2020/02/18 01:54 EST    4.10   4.85   15   78   21  39.2  40.6 1028.5 -9.9 -9.999 -99.9 -99.99 -9.99
2020/02/18 02:00 EST    4.18   4.95   15   78   20  39.0  40.8 1028.5 -9.9 -9.999 -99.9 -99.99 -9.99
2020/02/18 02:06 EST    4.26   5.02   14   76   20  39.0  40.8 1028.5 -9.9 -9.999 -99.9 -99.99 -9.99
2020/02/18 02:12 EST    4.33   5.08   17   78   22  39.0  40.8 1028.5 -9.9 -9.999 -99.9 -99.99 -9.99
2020/02/18 02:18 EST    4.40   5.14   17   78   22  38.8  40.8 1028.3 -9.9 -9.999 -99.9 -99.99 -9.99
2020/02/18 02:24 EST    4.46   5.23   16   79   24  38.8  41.0 1028.2 -9.9 -9.999 -99.9 -99.99 -9.99
2020/02/18 02:30 EST    4.51   5.29   13   79   22  38.8  41.0 1028.1 -9.9 -9.999 -99.9 -99.99 -9.99
2020/02/18 02:36 EST    4.57   5.32   16   77   21  38.8  41.0 1028.0 -9.9 -9.999 -99.9 -99.99 -9.99
2020/02/18 02:42 EST    4.61   5.38   14   79   20  38.8  41.0 1027.9 -9.9 -9.999 -99.9 -99.99 -9.99
2020/02/18 02:48 EST    4.66   5.45   14   86   21  38.8  41.0 1027.9 -9.9 -9.999 -99.9 -99.99 -9.99
2020/02/18 02:54 EST    4.69   5.47   13   83   18  38.8  41.0 1027.9 -9.9 -9.999 -99.9 -99.99 -9.99
2020/02/18 03:00 EST    4.72   5.51   14   86   18  38.8  41.0 1027.9 -9.9 -9.999 -99.9 -99.99 -9.99
2020/02/18 03:06 EST    4.74   5.57   15   85   19  39.0  41.0 1027.9 -9.9 -9.999 -99.9 -99.99 -9.99
2020/02/18 03:12 EST    4.76   5.62   13   84   18  39.0  41.0 1027.9 -9.9 -9.999 -99.9 -99.99 -9.99
2020/02/18 03:18 EST    4.77   5.61   13   85   19  39.0  41.0 1027.9 -9.9 -9.999 -99.9 -99.99 -9.99
2020/02/18 03:24 EST    4.78   5.66   13   83   18  39.0  41.2 1027.9 -9.9 -9.999 -99.9 -99.99 -9.99
2020/02/18 03:30 EST    4.78   5.69   12   83   17  39.0  41.2 1027.7 -9.9 -9.999 -99.9 -99.99 -9.99
2020/02/18 03:36 EST    4.77   5.67   14   82   18  39.0  41.2 1027.7 -9.9 -9.999 -99.9 -99.99 -9.99
2020/02/18 03:42 EST    4.76   5.66   13   86   18  39.0  41.2 1027.7 -9.9 -9.999 -99.9 -99.99 -9.99
2020/02/18 03:48 EST    4.74   5.66   14   81   20  39.0  41.2 1027.7 -9.9 -9.999 -99.9 -99.99 -9.99
2020/02/18 03:54 EST    4.71   5.65   12   87   17  39.2  41.2 1027.8 -9.9 -9.999 -99.9 -99.99 -9.99
2020/02/18 04:00 EST    4.68   5.61   12   86   17  39.2  41.2 1027.7 -9.9 -9.999 -99.9 -99.99 -9.99
2020/02/18 04:06 EST    4.64   5.60   11   90   17  39.4  41.2 1027.7 -9.9 -9.999 -99.9 -99.99 -9.99
2020/02/18 04:12 EST    4.60   5.55   13   87   17  39.4  41.2 1028.0 -9.9 -9.999 -99.9 -99.99 -9.99
2020/02/18 04:18 EST    4.56   5.50   11   90   17  39.4  41.2 1027.8 -9.9 -9.999 -99.9 -99.99 -9.99
2020/02/18 04:24 EST    4.50   5.48   12   86   18  39.4  41.2 1027.7 -9.9 -9.999 -99.9 -99.99 -9.99
2020/02/18 04:30 EST    4.45   5.43   11   87   18  39.6  41.2 1027.9 -9.9 -9.999 -99.9 -99.99 -9.99
2020/02/18 04:36 EST    4.39   5.34   13   86   16  39.4  41.2 1027.7 -9.9 -9.999 -99.9 -99.99 -9.99
2020/02/18 04:42 EST    4.33   5.30   11   93   18  39.4  41.2 1027.5 -9.9 -9.999 -99.9 -99.99 -9.99
2020/02/18 04:48 EST    4.26   5.23   15   95   18  39.4  41.2 1027.2 -9.9 -9.999 -99.9 -99.99 -9.99
2020/02/18 04:54 EST    4.19   5.18   13   93   17  39.6  41.2 1027.3 -9.9 -9.999 -99.9 -99.99 -9.99
2020/02/18 05:00 EST    4.12   5.10   12   95   17  39.7  41.2 1027.3 -9.9 -9.999 -99.9 -99.99 -9.99
2020/02/18 05:06 EST    4.04   5.03   13   88   16  39.9  41.2 1027.1 -9.9 -9.999 -99.9 -99.99 -9.99
2020/02/18 05:12 EST    3.97   4.98   11   85   15  40.1  41.2 1027.1 -9.9 -9.999 -99.9 -99.99 -9.99
2020/02/18 05:18 EST    3.89   4.92   10   81   14  40.3  41.2 1027.2 -9.9 -9.999 -99.9 -99.99 -9.99
2020/02/18 05:24 EST    3.81   4.86   10   90   14  40.6  41.4 1027.2 -9.9 -9.999 -99.9 -99.99 -9.99
2020/02/18 05:30 EST    3.73   4.77    7   94   13  41.0  41.4 1027.7 -9.9 -9.999 -99.9 -99.99 -9.99
2020/02/18 05:36 EST    3.65   4.68   10   97   12  42.1  41.4 1027.5 -9.9 -9.999 -99.9 -99.99 -9.99
2020/02/18 05:42 EST    3.56   4.60   11  100   15  42.1  41.4 1027.2 -9.9 -9.999 -99.9 -99.99 -9.99
2020/02/18 05:48 EST    3.48   4.50   10   97   14  42.1  41.4 1027.3 -9.9 -9.999 -99.9 -99.99 -9.99
2020/02/18 05:54 EST    3.40   4.42   10   99   13  42.3  41.4 1027.4 -9.9 -9.999 -99.9 -99.99 -9.99
2020/02/18 06:00 EST    3.31   4.31    9  104   12  42.3  41.4 1027.4 -9.9 -9.999 -99.9 -99.99 -9.99
2020/02/18 06:06 EST    3.23   4.21    9  104   14  42.3  41.4 1027.5 -9.9 -9.999 -99.9 -99.99 -9.99
2020/02/18 06:12 EST    3.14   4.13    8  106   12  42.3  41.4 1027.7 -9.9 -9.999 -99.9 -99.99 -9.99
2020/02/18 06:18 EST    3.05   4.04    8  107   12  42.4  41.4 1027.8 -9.9 -9.999 -99.9 -99.99 -9.99
2020/02/18 06:24 EST    2.97   3.94    9  109   12  42.4  41.4 1027.7 -9.9 -9.999 -99.9 -99.99 -9.99
2020/02/18 06:30 EST    2.88   3.87    7  110   12  42.4  41.4 1027.7 -9.9 -9.999 -99.9 -99.99 -9.99
2020/02/18 06:36 EST    2.79   3.78    9  106   12  42.4  41.4 1027.6 -9.9 -9.999 -99.9 -99.99 -9.99
2020/02/18 06:42 EST    2.71   3.71    8  108   12  42.3  41.4 1027.4 -9.9 -9.999 -99.9 -99.99 -9.99
2020/02/18 06:48 EST    2.62   3.58    9  109   12  42.4  41.4 1027.3 -9.9 -9.999 -99.9 -99.99 -9.99
2020/02/18 06:54 EST    2.53   3.53   10  109   12  42.4  41.4 1027.2 -9.9 -9.999 -99.9 -99.99 -9.99
2020/02/18 07:00 EST    2.44   3.41    9  106   13  42.4  41.4 1027.2 -9.9 -9.999 -99.9 -99.99 -9.99
2020/02/18 07:06 EST    2.35   3.34   10  107   13  42.4  41.4 1027.0 -9.9 -9.999 -99.9 -99.99 -9.99
2020/02/18 07:12 EST    2.26   3.24   10  111   13  42.4  41.4 1026.9 -9.9 -9.999 -99.9 -99.99 -9.99
2020/02/18 07:18 EST    2.16   3.17   10  108   15  42.6  41.4 1027.0 -9.9 -9.999 -99.9 -99.99 -9.99
2020/02/18 07:24 EST    2.07   3.03   11  107   15  42.6  41.4 1027.0 -9.9 -9.999 -99.9 -99.99 -9.99
2020/02/18 07:30 EST    1.98   2.98   11  113   14  42.6  41.4 1027.1 -9.9 -9.999 -99.9 -99.99 -9.99
2020/02/18 07:36 EST    1.88   2.86    9  109   14  42.8  41.4 1027.0 -9.9 -9.999 -99.9 -99.99 -9.99
2020/02/18 07:42 EST    1.79   2.79   10  110   13  42.8  41.4 1027.0 -9.9 -9.999 -99.9 -99.99 -9.99
2020/02/18 07:48 EST    1.69   2.68   11  107   14  43.0  41.4 1027.0 -9.9 -9.999 -99.9 -99.99 -9.99
2020/02/18 07:54 EST    1.60   2.60   11  108   14  43.0  41.4 1026.8 -9.9 -9.999 -99.9 -99.99 -9.99
2020/02/18 08:00 EST    1.51   2.53   11  105   15  43.0  41.4 1026.7 -9.9 -9.999 -99.9 -99.99 -9.99
2020/02/18 08:06 EST    1.41   2.46   12  104   16  43.0  41.4 1026.7 -9.9 -9.999 -99.9 -99.99 -9.99
2020/02/18 08:12 EST    1.32   2.37   11  101   15  43.0  41.4 1026.6 -9.9 -9.999 -99.9 -99.99 -9.99
2020/02/18 08:18 EST    1.23   2.27   11  100   15  43.0  41.2 1026.6 -9.9 -9.999 -99.9 -99.99 -9.99
2020/02/18 08:24 EST    1.14   2.24   12  103   16  43.2  41.2 1026.6 -9.9 -9.999 -99.9 -99.99 -9.99
2020/02/18 08:30 EST    1.05   2.16   11  103   16  43.2  41.0 1026.5 -9.9 -9.999 -99.9 -99.99 -9.99
2020/02/18 08:36 EST    0.96   2.08   10  103   15  43.0  41.0 1026.5 -9.9 -9.999 -99.9 -99.99 -9.99
2020/02/18 08:42 EST    0.88   2.00   10  102   14  43.0  41.0 1026.4 -9.9 -9.999 -99.9 -99.99 -9.99
2020/02/18 08:48 EST    0.80   1.95   10  104   12  43.2  40.8 1026.3 -9.9 -9.999 -99.9 -99.99 -9.99
2020/02/18 08:54 EST    0.72   1.87   11  103   15  43.2  40.8 1026.3 -9.9 -9.999 -99.9 -99.99 -9.99
2020/02/18 09:00 EST    0.65   1.82   11  100   14  43.2  40.8 1026.1 -9.9 -9.999 -99.9 -99.99 -9.99
2020/02/18 09:06 EST    0.58   1.76   10   98   14  43.2  40.8 1025.9 -9.9 -9.999 -99.9 -99.99 -9.99
2020/02/18 09:12 EST    0.51   1.70    9   98   13  43.2  40.8 1025.9 -9.9 -9.999 -99.9 -99.99 -9.99
2020/02/18 09:18 EST    0.46   1.69   10   98   13  43.2  40.8 1025.9 -9.9 -9.999 -99.9 -99.99 -9.99
2020/02/18 09:24 EST    0.40   1.63    9   99   14  43.2  40.8 1026.0 -9.9 -9.999 -99.9 -99.99 -9.99
2020/02/18 09:30 EST    0.35   1.61   10  100   13  43.3  40.8 1026.0 -9.9 -9.999 -99.9 -99.99 -9.99
2020/02/18 09:36 EST    0.31   1.56   10   98   13  43.3  40.8 1026.0 -9.9 -9.999 -99.9 -99.99 -9.99
2020/02/18 09:42 EST    0.28   1.55    9   96   12  43.5  40.8 1026.0 -9.9 -9.999 -99.9 -99.99 -9.99
2020/02/18 09:48 EST    0.25   1.53   11   97   14  43.3  40.8 1026.0 -9.9 -9.999 -99.9 -99.99 -9.99
2020/02/18 09:54 EST    0.23   1.51    8   94   12  43.3  40.8 1025.9 -9.9 -9.999 -99.9 -99.99 -9.99
2020/02/18 10:00 EST    0.21   1.48    9   96   13  43.5  40.8 1025.8 -9.9 -9.999 -99.9 -99.99 -9.99
2020/02/18 10:06 EST    0.21   1.45   10   94   13  43.5  40.8 1025.7 -9.9 -9.999 -99.9 -99.99 -9.99
2020/02/18 10:12 EST    0.21   1.47   10   94   13  43.5  40.8 1025.6 -9.9 -9.999 -99.9 -99.99 -9.99
2020/02/18 10:18 EST    0.21   1.44   10   94   13  43.5  40.8 1025.4 -9.9 -9.999 -99.9 -99.99 -9.99
2020/02/18 10:24 EST    0.22   1.46    9   95   12  43.5  40.8 1025.4 -9.9 -9.999 -99.9 -99.99 -9.99
2020/02/18 10:30 EST    0.24   1.45    8   92   11  43.5  40.8 1025.3 -9.9 -9.999 -99.9 -99.99 -9.99
2020/02/18 10:36 EST    0.27   1.46    8   86   12  43.7  40.8 1025.2 -9.9 -9.999 -99.9 -99.99 -9.99
2020/02/18 10:42 EST    0.30   1.48    9   87   13  43.7  40.8 1025.1 -9.9 -9.999 -99.9 -99.99 -9.99
2020/02/18 10:48 EST    0.34   1.52    8   90   11  43.9  40.8 1024.9 -9.9 -9.999 -99.9 -99.99 -9.99
2020/02/18 10:54 EST    0.39   1.53    9   95   11  44.1  40.8 1024.7 -9.9 -9.999 -99.9 -99.99 -9.99
2020/02/18 11:00 EST    0.44   1.57   11   96   13  44.1  41.0 1024.5 -9.9 -9.999 -99.9 -99.99 -9.99
2020/02/18 11:06 EST    0.49   1.61   10   97   14  44.4  41.0 1024.4 -9.9 -9.999 -99.9 -99.99 -9.99
2020/02/18 11:12 EST    0.55   1.68    8   88   12  44.2  41.0 1024.3 -9.9 -9.999 -99.9 -99.99 -9.99
2020/02/18 11:18 EST    0.62   1.72    9   88   13  44.4  41.0 1024.2 -9.9 -9.999 -99.9 -99.99 -9.99
2020/02/18 11:24 EST    0.69   1.79    9   88   12  44.2  41.0 1024.1 -9.9 -9.999 -99.9 -99.99 -9.99
2020/02/18 11:30 EST    0.76   1.84   10   98   14  44.4  41.0 1023.8 -9.9 -9.999 -99.9 -99.99 -9.99
2020/02/18 11:36 EST    0.84   1.89   13   98   17  44.6  41.0 1023.4 -9.9 -9.999 -99.9 -99.99 -9.99
2020/02/18 11:42 EST    0.92   1.98   11   96   15  44.8  41.0 1023.2 -9.9 -9.999 -99.9 -99.99 -9.99
2020/02/18 11:48 EST    1.00   2.05   11   85   15  44.2  41.0 1023.1 -9.9 -9.999 -99.9 -99.99 -9.99
2020/02/18 11:54 EST    1.08   2.12    9   89   12  44.4  41.0 1023.0 -9.9 -9.999 -99.9 -99.99 -9.99
2020/02/18 12:00 EST    1.17   2.20    8   93   11  45.0  41.0 1023.0 -9.9 -9.999 -99.9 -99.99 -9.99
2020/02/18 12:06 EST    1.26   2.27    7   89   11  45.0  41.0 1022.8 -9.9 -9.999 -99.9 -99.99 -9.99
2020/02/18 12:12 EST    1.35   2.34    7   89   10  44.8  41.0 1022.7 -9.9 -9.999 -99.9 -99.99 -9.99
2020/02/18 12:18 EST    1.44   2.44    8   82   11  44.6  41.2 1022.6 -9.9 -9.999 -99.9 -99.99 -9.99
2020/02/18 12:24 EST    1.54   2.52    8   85   12  44.2  41.2 1022.4 -9.9 -9.999 -99.9 -99.99 -9.99
2020/02/18 12:30 EST    1.63   2.60   11   83   13  44.1  41.2 1022.0 -9.9 -9.999 -99.9 -99.99 -9.99
2020/02/18 12:36 EST    1.72   2.68    9   81   12  44.1  41.4 1021.8 -9.9 -9.999 -99.9 -99.99 -9.99
2020/02/18 12:42 EST    1.82   2.80   10   85   13  44.1  41.5 1021.6 -9.9 -9.999 -99.9 -99.99 -9.99
2020/02/18 12:48 EST    1.91   2.90    7   73   11  44.1  41.5 1021.7 -9.9 -9.999 -99.9 -99.99 -9.99
2020/02/18 12:54 EST    2.01   3.00   10   77   11  43.9  41.5 1021.5 -9.9 -9.999 -99.9 -99.99 -9.99
2020/02/18 13:00 EST    2.10   3.08    9   79   12  43.9  41.4 1021.3 -9.9 -9.999 -99.9 -99.99 -9.99
2020/02/18 13:06 EST    2.19   3.15    8   76   12  43.9  41.4 1021.2 -9.9 -9.999 -99.9 -99.99 -9.99
2020/02/18 13:12 EST    2.29   3.27    8   76   11  43.9  41.2 1021.1 -9.9 -9.999 -99.9 -99.99 -9.99
2020/02/18 13:18 EST    2.38   3.33    8   74   11  44.1  41.2 1021.0 -9.9 -9.999 -99.9 -99.99 -9.99
2020/02/18 13:24 EST    2.47   3.40    8   75   11  44.2  41.2 1020.7 -9.9 -9.999 -99.9 -99.99 -9.99
2020/02/18 13:30 EST    2.56   3.51    8   80   11  44.2  41.0 1020.6 -9.9 -9.999 -99.9 -99.99 -9.99
2020/02/18 13:36 EST    2.65   3.62    9   81   11  43.9  41.0 1020.5 -9.9 -9.999 -99.9 -99.99 -9.99
2020/02/18 13:42 EST    2.74   3.66    7   80   11  43.9  41.0 1020.5 -9.9 -9.999 -99.9 -99.99 -9.99
2020/02/18 13:48 EST    2.83   3.77    6   83   10  44.1  41.0 1020.1 -9.9 -9.999 -99.9 -99.99 -9.99
2020/02/18 13:54 EST    2.92   3.89    8   79   11  43.9  41.0 1019.8 -9.9 -9.999 -99.9 -99.99 -9.99
2020/02/18 14:00 EST    3.00   3.95    8   84   12  43.9  41.2 1019.5 -9.9 -9.999 -99.9 -99.99 -9.99
2020/02/18 14:06 EST    3.08   4.02    8   83   11  43.7  41.0 1019.4 -9.9 -9.999 -99.9 -99.99 -9.99
2020/02/18 14:12 EST    3.16   4.10   10   87   12  43.7  41.0 1019.1 -9.9 -9.999 -99.9 -99.99 -9.99
2020/02/18 14:18 EST    3.24   4.21    8   78   10  43.7  41.2 1019.2 -9.9 -9.999 -99.9 -99.99 -9.99
2020/02/18 14:24 EST    3.31   4.26    6   74   10  43.7  41.2 1019.1 -9.9 -9.999 -99.9 -99.99 -9.99
2020/02/18 14:30 EST    3.38   4.30    8   77   11  43.7  41.2 1018.9 -9.9 -9.999 -99.9 -99.99 -9.99
2020/02/18 14:36 EST    3.45   4.37   10   88   12  43.7  41.2 1018.6 -9.9 -9.999 -99.9 -99.99 -9.99
2020/02/18 14:42 EST    3.51   4.45    8   87   12  43.7  41.2 1018.9 -9.9 -9.999 -99.9 -99.99 -9.99
2020/02/18 14:48 EST    3.57   4.47    7   97   10  43.9  41.2 1018.8 -9.9 -9.999 -99.9 -99.99 -9.99
2020/02/18 14:54 EST    3.63   4.57    7   94    9  43.9  41.2 1018.5 -9.9 -9.999 -99.9 -99.99 -9.99
2020/02/18 15:00 EST    3.68   4.60    5   94    8  43.9  41.2 1018.5 -9.9 -9.999 -99.9 -99.99 -9.99
2020/02/18 15:06 EST    3.73   4.67    5   88    8  43.9  41.2 1018.4 -9.9 -9.999 -99.9 -99.99 -9.99
2020/02/18 15:12 EST    3.77   4.72    4   94    7  43.9  41.2 1018.6 -9.9 -9.999 -99.9 -99.99 -9.99
2020/02/18 15:18 EST    3.81   4.79    3   78    5  43.9  41.2 1018.6 -9.9 -9.999 -99.9 -99.99 -9.99
2020/02/18 15:24 EST    3.84   4.79    4  111    5  43.9  41.2 1018.4 -9.9 -9.999 -99.9 -99.99 -9.99
2020/02/18 15:30 EST    3.87   4.83    5  102    7  43.9  41.2 1018.1 -9.9 -9.999 -99.9 -99.99 -9.99
2020/02/18 15:36 EST    3.89   4.85    6  103    7  43.9  41.2 1018.1 -9.9 -9.999 -99.9 -99.99 -9.99
2020/02/18 15:42 EST    3.90   4.87    6   90    9  43.9  41.2 1017.9 -9.9 -9.999 -99.9 -99.99 -9.99
2020/02/18 15:48 EST    3.91   4.88    7   82    9  43.9  41.2 1017.8 -9.9 -9.999 -99.9 -99.99 -9.99
2020/02/18 15:54 EST    3.92   4.91   11   85   12  43.5  41.2 1017.4 -9.9 -9.999 -99.9 -99.99 -9.99
2020/02/18 16:00 EST    3.92   4.94   10   89   12  43.5  41.2 1017.4 -9.9 -9.999 -99.9 -99.99 -9.99
2020/02/18 16:06 EST    3.91   4.93   11   86   14  43.5  41.2 1017.2 -9.9 -9.999 -99.9 -99.99 -9.99
2020/02/18 16:12 EST    3.90   4.94    9   81   13  43.7  41.2 1017.1 -9.9 -9.999 -99.9 -99.99 -9.99
2020/02/18 16:18 EST    3.88   4.96   10   74   14  43.9  41.2 1016.9 -9.9 -9.999 -99.9 -99.99 -9.99
2020/02/18 16:24 EST    3.86   4.95   10   80   12  43.7  41.2 1016.8 -9.9 -9.999 -99.9 -99.99 -9.99
2020/02/18 16:30 EST    3.83   4.97    9   78   11  43.7  41.2 1016.7 -9.9 -9.999 -99.9 -99.99 -9.99
2020/02/18 16:36 EST    3.80   4.96    8   71   11  43.5  41.2 1016.7 -9.9 -9.999 -99.9 -99.99 -9.99
2020/02/18 16:42 EST    3.76   4.94    9   70   12  43.5  41.2 1016.5 -9.9 -9.999 -99.9 -99.99 -9.99
2020/02/18 16:48 EST    3.72   4.90    8   69   12  43.5  41.2 1016.4 -9.9 -9.999 -99.9 -99.99 -9.99
2020/02/18 16:54 EST    3.67   4.88    8   68   11  43.7  41.2 1016.4 -9.9 -9.999 -99.9 -99.99 -9.99
2020/02/18 17:00 EST    3.62   4.85    7   70   11  43.7  41.4 1016.6 -9.9 -9.999 -99.9 -99.99 -9.99
2020/02/18 17:06 EST    3.57   4.79    8   65   11  43.9  41.4 1016.6 -9.9 -9.999 -99.9 -99.99 -9.99
2020/02/18 17:12 EST    3.52   4.70    7   68   11  43.9  41.2 1016.5 -9.9 -9.999 -99.9 -99.99 -9.99
2020/02/18 17:18 EST    3.46   4.66    6   63   10  43.9  41.2 1016.4 -9.9 -9.999 -99.9 -99.99 -9.99
2020/02/18 17:24 EST    3.40   4.58    5   68    8  43.9  41.0 1016.3 -9.9 -9.999 -99.9 -99.99 -9.99
2020/02/18 17:30 EST    3.33   4.53    5   60    8  43.9  41.0 1016.3 -9.9 -9.999 -99.9 -99.99 -9.99
2020/02/18 17:36 EST    3.27   4.46    5   55    7  43.9  41.0 1016.3 -9.9 -9.999 -99.9 -99.99 -9.99
2020/02/18 17:42 EST    3.20   4.39    5   46    8  44.1  41.0 1016.3 -9.9 -9.999 -99.9 -99.99 -9.99
2020/02/18 17:48 EST    3.14   4.35    4   36    7  44.1  41.0 1016.2 -9.9 -9.999 -99.9 -99.99 -9.99
2020/02/18 17:54 EST    3.07   4.29    5   27    7  44.2  41.0 1016.4 -9.9 -9.999 -99.9 -99.99 -9.99
2020/02/18 18:00 EST    3.00   4.21    4   18    6  44.4  41.0 1016.4 -9.9 -9.999 -99.9 -99.99 -9.99
2020/02/18 18:06 EST    2.93   4.12    4   24    7  44.6  41.0 1016.4 -9.9 -9.999 -99.9 -99.99 -9.99
2020/02/18 18:12 EST    2.86   4.07    4  338    6  43.9  41.0 1016.5 -9.9 -9.999 -99.9 -99.99 -9.99
2020/02/18 18:18 EST    2.78   3.97    6  325    8  42.6  41.0 1016.7 -9.9 -9.999 -99.9 -99.99 -9.99
2020/02/18 18:24 EST    2.71   3.84    7  337   10  42.4  41.0 1016.9 -9.9 -9.999 -99.9 -99.99 -9.99
2020/02/18 18:30 EST    2.64   3.78    7  342    9  42.6  41.0 1016.8 -9.9 -9.999 -99.9 -99.99 -9.99
2020/02/18 18:36 EST    2.57   3.71    6  343   10  42.4  41.0 1016.6 -9.9 -9.999 -99.9 -99.99 -9.99
2020/02/18 18:42 EST    2.50   3.59    7  339    9  42.4  41.0 1016.7 -9.9 -9.999 -99.9 -99.99 -9.99
2020/02/18 18:48 EST    2.42   3.52    5  351    8  42.4  41.0 1016.5 -9.9 -9.999 -99.9 -99.99 -9.99
2020/02/18 18:54 EST    2.35   3.45    3  354    6  42.4  41.0 1016.4 -9.9 -9.999 -99.9 -99.99 -9.99
2020/02/18 19:00 EST    2.28   3.37    5  352    7  42.4  41.0 1016.4 -9.9 -9.999 -99.9 -99.99 -9.99
2020/02/18 19:06 EST    2.20   3.26    5  359    9  42.4  41.0 1016.2 -9.9 -9.999 -99.9 -99.99 -9.99
2020/02/18 19:12 EST    2.13   3.19    8  343   10  42.3  41.0 1016.3 -9.9 -9.999 -99.9 -99.99 -9.99
2020/02/18 19:18 EST    2.05   3.11    6  359   10  42.3  41.0 1016.2 -9.9 -9.999 -99.9 -99.99 -9.99
2020/02/18 19:24 EST    1.98   3.01    8  350   11  42.3  41.0 1016.3 -9.9 -9.999 -99.9 -99.99 -9.99
2020/02/18 19:30 EST    1.90   2.92    6  350   11  42.3  41.0 1016.4 -9.9 -9.999 -99.9 -99.99 -9.99
2020/02/18 19:36 EST    1.82   2.86    7  352   10  42.3  41.0 1016.3 -9.9 -9.999 -99.9 -99.99 -9.99
2020/02/18 19:42 EST    1.75   2.78    5    2   10  42.1  41.0 1015.9 -9.9 -9.999 -99.9 -99.99 -9.99
2020/02/18 19:48 EST    1.67   2.67    5  353    9  42.1  41.0 1016.2 -9.9 -9.999 -99.9 -99.99 -9.99
2020/02/18 19:54 EST    1.59   2.59    4  358    7  42.1  41.0 1016.2 -9.9 -9.999 -99.9 -99.99 -9.99
2020/02/18 20:00 EST    1.51   2.51    6  346    8  42.1  41.0 1016.2 -9.9 -9.999 -99.9 -99.99 -9.99
2020/02/18 20:06 EST    1.44   2.42    5  347    9  41.9  41.0 1016.1 -9.9 -9.999 -99.9 -99.99 -9.99
2020/02/18 20:12 EST    1.36   2.32    7  344   10  41.9  41.0 1016.2 -9.9 -9.999 -99.9 -99.99 -9.99
2020/02/18 20:18 EST    1.28   2.24    8  342   11  41.9  41.2 1016.3 -9.9 -9.999 -99.9 -99.99 -9.99
2020/02/18 20:24 EST    1.20   2.16    9  339   11  41.9  41.2 1016.4 -9.9 -9.999 -99.9 -99.99 -9.99
2020/02/18 20:30 EST    1.12   2.08    9  338   12  41.9  41.2 1016.5 -9.9 -9.999 -99.9 -99.99 -9.99
2020/02/18 20:36 EST    1.05   2.00    9  336   12  41.9  41.4 1016.5 -9.9 -9.999 -99.9 -99.99 -9.99
2020/02/18 20:42 EST    0.97   1.93    7  342   10  41.9  41.4 1016.4 -9.9 -9.999 -99.9 -99.99 -9.99
2020/02/18 20:48 EST    0.90   1.87    5  337    7  41.9  41.4 1016.2 -9.9 -9.999 -99.9 -99.99 -9.99
2020/02/18 20:54 EST    0.83   1.79    5  323    6  41.9  41.4 1016.3 -9.9 -9.999 -99.9 -99.99 -9.99
2020/02/18 21:00 EST    0.76   1.71    4  314    6  41.9  41.4 1016.4 -9.9 -9.999 -99.9 -99.99 -9.99
2020/02/18 21:06 EST    0.69   1.63    5  304    5  41.9  41.2 1016.6 -9.9 -9.999 -99.9 -99.99 -9.99
2020/02/18 21:12 EST    0.63   1.57    2  305    5  41.7  41.2 1016.3 -9.9 -9.999 -99.9 -99.99 -9.99
2020/02/18 21:18 EST    0.57   1.50    2  305    2  41.7  41.2 1016.3 -9.9 -9.999 -99.9 -99.99 -9.99
2020/02/18 21:24 EST    0.51   1.43    4  321    5  42.1  41.2 1016.7 -9.9 -9.999 -99.9 -99.99 -9.99
2020/02/18 21:30 EST    0.46   1.37    3  320    6  42.1  41.2 1016.5 -9.9 -9.999 -99.9 -99.99 -9.99
2020/02/18 21:36 EST    0.42   1.32    2  335    4  42.1  41.2 1016.3 -9.9 -9.999 -99.9 -99.99 -9.99
2020/02/18 21:42 EST    0.38   1.29    3  314    4  42.1  41.2 1016.5 -9.9 -9.999 -99.9 -99.99 -9.99
2020/02/18 21:48 EST    0.34   1.24    4  306    4  42.1  41.2 1016.6 -9.9 -9.999 -99.9 -99.99 -9.99
2020/02/18 21:54 EST    0.31   1.19    4  299    4  41.9  41.2 1016.6 -9.9 -9.999 -99.9 -99.99 -9.99
2020/02/18 22:00 EST    0.29   1.14    2  268    4  41.9  41.2 1016.4 -9.9 -9.999 -99.9 -99.99 -9.99
2020/02/18 22:06 EST    0.27   1.14    3  290    4  41.7  41.2 1016.3 -9.9 -9.999 -99.9 -99.99 -9.99
2020/02/18 22:12 EST    0.26   1.14    4  284    5  41.7  41.2 1016.4 -9.9 -9.999 -99.9 -99.99 -9.99
2020/02/18 22:18 EST    0.26   1.10    4  278    5  41.7  41.2 1016.1 -9.9 -9.999 -99.9 -99.99 -9.99
2020/02/18 22:24 EST    0.26   1.10    3  265    4  41.7  41.2 1015.9 -9.9 -9.999 -99.9 -99.99 -9.99
2020/02/18 22:30 EST    0.27   1.09    4  271    4  41.7  41.2 1015.8 -9.9 -9.999 -99.9 -99.99 -9.99
2020/02/18 22:36 EST    0.29   1.11    4  257    4  41.7  41.2 1015.9 -9.9 -9.999 -99.9 -99.99 -9.99
2020/02/18 22:42 EST    0.31   1.12    4  257    5  41.9  41.2 1015.9 -9.9 -9.999 -99.9 -99.99 -9.99
2020/02/18 22:48 EST    0.34   1.13    6  261    6  42.1  41.2 1016.1 -9.9 -9.999 -99.9 -99.99 -9.99
2020/02/18 22:54 EST    0.38   1.18    7  275    8  41.9  41.2 1016.4 -9.9 -9.999 -99.9 -99.99 -9.99
2020/02/18 23:00 EST    0.43   1.22    8  282    9  41.9  41.2 1016.6 -9.9 -9.999 -99.9 -99.99 -9.99
2020/02/18 23:06 EST    0.48   1.26    7  272    8  42.1  41.2 1016.4 -9.9 -9.999 -99.9 -99.99 -9.99
2020/02/18 23:12 EST    0.53   1.32    6  267    7  42.3  41.2 1016.4 -9.9 -9.999 -99.9 -99.99 -9.99
2020/02/18 23:18 EST    0.60   1.40    5  283    7  41.9  41.2 1016.4 -9.9 -9.999 -99.9 -99.99 -9.99
2020/02/18 23:24 EST    0.66   1.48    5  289    6  41.9  41.2 1016.4 -9.9 -9.999 -99.9 -99.99 -9.99
2020/02/18 23:30 EST    0.74   1.55    4  288    6  41.9  41.2 1016.4 -9.9 -9.999 -99.9 -99.99 -9.99
2020/02/18 23:36 EST    0.81   1.65    4  289    5  42.1  41.2 1016.3 -9.9 -9.999 -99.9 -99.99 -9.99
2020/02/18 23:42 EST    0.90   1.75    6  300    6  42.1  41.2 1016.7 -9.9 -9.999 -99.9 -99.99 -9.99
2020/02/18 23:48 EST    0.98   1.85    6  296    7  42.1  41.2 1016.8 -9.9 -9.999 -99.9 -99.99 -9.99
2020/02/18 23:54 EST    1.07   1.93    7  296    8  42.3  41.2 1016.6 -9.9 -9.999 -99.9 -99.99 -9.99
2020/02/19 00:00 EST    1.17   2.06    8  296    9  42.4  41.2 1016.5 -9.9 -9.999 -99.9 -99.99 -9.99
2020/02/19 00:06 EST    1.26   2.13    7  298    8  42.4  41.2 1016.3 -9.9 -9.999 -99.9 -99.99 -9.99
2020/02/19 00:12 EST    1.36   2.26    8  299    8  42.6  41.2 1016.5 -9.9 -9.999 -99.9 -99.99 -9.99
2020/02/19 00:18 EST    1.46   2.35    8  307    8  42.6  41.2 1016.4 -9.9 -9.999 -99.9 -99.99 -9.99
2020/02/19 00:24 EST    1.56   2.46    7  307    8  42.6  41.2 1016.5 -9.9 -9.999 -99.9 -99.99 -9.99
2020/02/19 00:30 EST    1.67   2.57    8  304    8  42.8  41.2 1016.7 -9.9 -9.999 -99.9 -99.99 -9.99
2020/02/19 00:36 EST    1.77   2.67    6  293    8  42.6  41.4 1016.7 -9.9 -9.999 -99.9 -99.99 -9.99
2020/02/19 00:42 EST    1.88   2.79    7  279    8  42.6  41.4 1016.9 -9.9 -9.999 -99.9 -99.99 -9.99
2020/02/19 00:48 EST    1.99   2.91    6  280    8  42.4  41.4 1016.8 -9.9 -9.999 -99.9 -99.99 -9.99
2020/02/19 00:54 EST    2.10   3.04    5  285    7  42.4  41.2 1016.8 -9.9 -9.999 -99.9 -99.99 -9.99
2020/02/19 01:00 EST    2.21   3.14    4  295    5  42.4  41.2 1016.8 -9.9 -9.999 -99.9 -99.99 -9.99
2020/02/19 01:06 EST    2.31   3.26    5  293    5  42.4  41.2 1016.8 -9.9 -9.999 -99.9 -99.99 -9.99
2020/02/19 01:12 EST    2.42   3.38    6  294    6  42.4  41.2 1016.9 -9.9 -9.999 -99.9 -99.99 -9.99
2020/02/19 01:18 EST    2.53   3.52    6  294    7  42.6  41.2 1016.8 -9.9 -9.999 -99.9 -99.99 -9.99
2020/02/19 01:24 EST    2.64   3.61    7  295    8  42.6  41.2 1016.8 -9.9 -9.999 -99.9 -99.99 -9.99
2020/02/19 01:30 EST    2.75   3.73    9  298   10  42.6  41.2 1016.9 -9.9 -9.999 -99.9 -99.99 -9.99
2020/02/19 01:36 EST    2.85   3.84    9  298   10  42.8  41.2 1016.9 -9.9 -9.999 -99.9 -99.99 -9.99
2020/02/19 01:42 EST    2.96   3.93    9  295   10  42.8  41.2 1017.0 -9.9 -9.999 -99.9 -99.99 -9.99
2020/02/19 01:48 EST    3.06   4.02    8  291   10  43.0  41.2 1016.9 -9.9 -9.999 -99.9 -99.99 -9.99
2020/02/19 01:54 EST    3.17   4.12    7  289    9  43.0  41.2 1016.8 -9.9 -9.999 -99.9 -99.99 -9.99
2020/02/19 02:00 EST    3.27   4.20    9  292   10  43.3  41.2 1016.8 -9.9 -9.999 -99.9 -99.99 -9.99
2020/02/19 02:06 EST    3.37   4.25   11  284   11  43.7  41.2 1016.9 -9.9 -9.999 -99.9 -99.99 -9.99
2020/02/19 02:12 EST    3.47   4.34   10  290   12  43.7  41.2 1016.9 -9.9 -9.999 -99.9 -99.99 -9.99
2020/02/19 02:18 EST    3.57   4.42   10  290   11  43.7  41.2 1016.9 -9.9 -9.999 -99.9 -99.99 -9.99
2020/02/19 02:24 EST    3.66   4.50   11  286   12  43.9  41.2 1017.3 -9.9 -9.999 -99.9 -99.99 -9.99
2020/02/19 02:30 EST    3.76   4.55   12  295   16  44.2  41.2 1017.2 -9.9 -9.999 -99.9 -99.99 -9.99
2020/02/19 02:36 EST    3.85   4.63   13  306   15  45.5  41.2 1017.1 -9.9 -9.999 -99.9 -99.99 -9.99
2020/02/19 02:42 EST    3.94   4.68   14  311   18  46.4  41.2 1017.1 -9.9 -9.999 -99.9 -99.99 -9.99
2020/02/19 02:48 EST    4.02   4.77   13  313   15  46.2  41.2 1017.3 -9.9 -9.999 -99.9 -99.99 -9.99
2020/02/19 02:54 EST    4.11   4.83   14  312   18  46.2  41.2 1017.5 -9.9 -9.999 -99.9 -99.99 -9.99
2020/02/19 03:00 EST    4.18   4.86   16  313   20  46.6  41.2 1017.8 -9.9 -9.999 -99.9 -99.99 -9.99
2020/02/19 03:06 EST    4.26   4.90   13  318   19  46.4  41.2 1017.2 -9.9 -9.999 -99.9 -99.99 -9.99
2020/02/19 03:12 EST    4.33   4.96   15  316   18  46.6  41.2 1017.4 -9.9 -9.999 -99.9 -99.99 -9.99
2020/02/19 03:18 EST    4.40   5.00   14  314   21  46.2  41.2 1017.8 -9.9 -9.999 -99.9 -99.99 -9.99
2020/02/19 03:24 EST    4.46   5.01   12  309   15  45.7  41.2 1018.2 -9.9 -9.999 -99.9 -99.99 -9.99
2020/02/19 03:30 EST    4.52   5.04   13  314   16  45.9  41.2 1018.2 -9.9 -9.999 -99.9 -99.99 -9.99
2020/02/19 03:36 EST    4.57   5.08   12  312   16  45.5  41.2 1018.4 -9.9 -9.999 -99.9 -99.99 -9.99
2020/02/19 03:42 EST    4.62   5.08   14  314   17  45.9  41.2 1018.6 -9.9 -9.999 -99.9 -99.99 -9.99
2020/02/19 03:48 EST    4.66   5.11   13  328   20  46.0  41.4 1018.8 -9.9 -9.999 -99.9 -99.99 -9.99
2020/02/19 03:54 EST    4.70   5.15   18  327   22  45.7  41.4 1018.7 -9.9 -9.999 -99.9 -99.99 -9.99
2020/02/19 04:00 EST    4.73   5.19   16  320   21  45.0  41.4 1018.6 -9.9 -9.999 -99.9 -99.99 -9.99
2020/02/19 04:06 EST    4.76   5.22   17  318   21  44.8  41.4 1018.7 -9.9 -9.999 -99.9 -99.99 -9.99
2020/02/19 04:12 EST    4.78   5.27   17  315   21  44.6  41.4 1018.8 -9.9 -9.999 -99.9 -99.99 -9.99
2020/02/19 04:18 EST    4.79   5.27   16  320   21  44.4  41.4 1018.9 -9.9 -9.999 -99.9 -99.99 -9.99
2020/02/19 04:24 EST    4.80   5.27   17  318   20  44.6  41.4 1019.1 -9.9 -9.999 -99.9 -99.99 -9.99
2020/02/19 04:30 EST    4.80   5.27   20  325   24  44.6  41.4 1019.3 -9.9 -9.999 -99.9 -99.99 -9.99
2020/02/19 04:36 EST    4.79   5.24   15  330   19  44.2  41.4 1019.3 -9.9 -9.999 -99.9 -99.99 -9.99
2020/02/19 04:42 EST    4.78   5.21   13  329   16  44.1  41.4 1019.5 -9.9 -9.999 -99.9 -99.99 -9.99
2020/02/19 04:48 EST    4.76   5.18   11  327   17  43.9  41.4 1019.7 -9.9 -9.999 -99.9 -99.99 -9.99
2020/02/19 04:54 EST    4.74   5.14   14  324   18  44.1  41.4 1019.8 -9.9 -9.999 -99.9 -99.99 -9.99
2020/02/19 05:00 EST    4.71   5.08   15  326   18  43.9  41.4 1020.0 -9.9 -9.999 -99.9 -99.99 -9.99
2020/02/19 05:06 EST    4.68   5.06   17  325   20  43.9  41.4 1020.1 -9.9 -9.999 -99.9 -99.99 -9.99
2020/02/19 05:12 EST    4.64   5.01   14  328   21  43.7  41.4 1020.2 -9.9 -9.999 -99.9 -99.99 -9.99
2020/02/19 05:18 EST    4.60   4.96   15  326   19  43.5  41.4 1020.1 -9.9 -9.999 -99.9 -99.99 -9.99
2020/02/19 05:24 EST    4.55   4.91   16  326   20  43.7  41.4 1020.2 -9.9 -9.999 -99.9 -99.99 -9.99
2020/02/19 05:30 EST    4.50   4.87   13  322   17  43.3  41.4 1020.4 -9.9 -9.999 -99.9 -99.99 -9.99
2020/02/19 05:36 EST    4.44   4.79   14  320   18  43.5  41.4 1020.7 -9.9 -9.999 -99.9 -99.99 -9.99
2020/02/19 05:42 EST    4.38   4.72   12  324   17  43.3  41.4 1020.6 -9.9 -9.999 -99.9 -99.99 -9.99
2020/02/19 05:48 EST    4.32   4.65   14  315   17  43.3  41.4 1020.7 -9.9 -9.999 -99.9 -99.99 -9.99
2020/02/19 05:54 EST    4.25   4.56   16  319   19  43.3  41.4 1020.7 -9.9 -9.999 -99.9 -99.99 -9.99
2020/02/19 06:00 EST    4.18   4.47   13  317   18  43.2  41.4 1020.7 -9.9 -9.999 -99.9 -99.99 -9.99
2020/02/19 06:06 EST    4.11   4.38   17  321   21  43.3  41.4 1020.8 -9.9 -9.999 -99.9 -99.99 -9.99
2020/02/19 06:12 EST    4.03   4.29   16  316   19  43.2  41.4 1020.9 -9.9 -9.999 -99.9 -99.99 -9.99
2020/02/19 06:18 EST    3.96   4.20   16  317   19  43.2  41.4 1021.0 -9.9 -9.999 -99.9 -99.99 -9.99
2020/02/19 06:24 EST    3.88   4.11   18  317   21  43.2  41.4 1021.1 -9.9 -9.999 -99.9 -99.99 -9.99
2020/02/19 06:30 EST    3.80   4.02   16  318   19  43.0  41.4 1021.1 -9.9 -9.999 -99.9 -99.99 -9.99
2020/02/19 06:36 EST    3.71   3.87   15  316   18  43.0  41.4 1021.3 -9.9 -9.999 -99.9 -99.99 -9.99
2020/02/19 06:42 EST    3.63   3.79   16  320   19  43.0  41.4 1021.3 -9.9 -9.999 -99.9 -99.99 -9.99
2020/02/19 06:48 EST    3.55   3.69   15  318   18  42.8  41.4 1021.3 -9.9 -9.999 -99.9 -99.99 -9.99
2020/02/19 06:54 EST    3.46   3.57   13  318   16  42.8  41.4 1021.4 -9.9 -9.999 -99.9 -99.99 -9.99
2020/02/19 07:00 EST    3.37   3.46   14  317   17  42.8  41.4 1021.7 -9.9 -9.999 -99.9 -99.99 -9.99
2020/02/19 07:06 EST    3.28   3.38   12  318   17  42.6  41.4 1021.7 -9.9 -9.999 -99.9 -99.99 -9.99
2020/02/19 07:12 EST    3.19   3.27   13  317   15  42.6  41.4 1021.9 -9.9 -9.999 -99.9 -99.99 -9.99
2020/02/19 07:18 EST    3.10   3.16   11  316   15  42.4  41.4 1022.1 -9.9 -9.999 -99.9 -99.99 -9.99
2020/02/19 07:24 EST    3.01   3.07   16  317   18  42.4  41.4 1022.0 -9.9 -9.999 -99.9 -99.99 -9.99
2020/02/19 07:30 EST    2.92   2.98   15  315   18  42.3  41.4 1022.2 -9.9 -9.999 -99.9 -99.99 -9.99
2020/02/19 07:36 EST    2.82   2.90   13  316   17  42.1  41.4 1022.4 -9.9 -9.999 -99.9 -99.99 -9.99
2020/02/19 07:42 EST    2.73   2.78   11  317   15  41.9  41.4 1022.3 -9.9 -9.999 -99.9 -99.99 -9.99
2020/02/19 07:48 EST    2.63   2.71   12  322   14  41.9  41.4 1022.5 -9.9 -9.999 -99.9 -99.99 -9.99
2020/02/19 07:54 EST    2.53   2.62   11  316   14  42.1  41.4 1022.8 -9.9 -9.999 -99.9 -99.99 -9.99
2020/02/19 08:00 EST    2.43   2.52   11  318   14  42.1  41.4 1022.7 -9.9 -9.999 -99.9 -99.99 -9.99
2020/02/19 08:06 EST    2.33   2.39   13  311   15  42.1  41.4 1023.0 -9.9 -9.999 -99.9 -99.99 -9.99
2020/02/19 08:12 EST    2.23   2.33   15  306   18  41.9  41.4 1023.1 -9.9 -9.999 -99.9 -99.99 -9.99
2020/02/19 08:18 EST    2.12   2.21   15  314   19  41.9  41.4 1023.2 -9.9 -9.999 -99.9 -99.99 -9.99
2020/02/19 08:24 EST    2.02   2.08   14  315   18  41.9  41.4 1023.4 -9.9 -9.999 -99.9 -99.99 -9.99
2020/02/19 08:30 EST    1.92   1.99   13  314   17  41.9  41.4 1023.5 -9.9 -9.999 -99.9 -99.99 -9.99
2020/02/19 08:36 EST    1.81   1.89   14  317   17  41.9  41.4 1023.5 -9.9 -9.999 -99.9 -99.99 -9.99
2020/02/19 08:42 EST    1.71   1.78   12  312   16  41.9  41.4 1023.5 -9.9 -9.999 -99.9 -99.99 -9.99
2020/02/19 08:48 EST    1.60   1.67   13  321   17  41.9  41.4 1023.5 -9.9 -9.999 -99.9 -99.99 -9.99
2020/02/19 08:54 EST    1.50   1.56   13  320   16  41.7  41.4 1023.6 -9.9 -9.999 -99.9 -99.99 -9.99
2020/02/19 09:00 EST    1.39   1.47   12  323   16  42.1  41.4 1023.6 -9.9 -9.999 -99.9 -99.99 -9.99
2020/02/19 09:06 EST    1.29   1.37   12  320   15  42.3  41.4 1023.6 -9.9 -9.999 -99.9 -99.99 -9.99
2020/02/19 09:12 EST    1.19   1.29   11  315   14  42.1  41.4 1023.8 -9.9 -9.999 -99.9 -99.99 -9.99
2020/02/19 09:18 EST    1.09   1.20   11  312   14  42.3  41.4 1023.9 -9.9 -9.999 -99.9 -99.99 -9.99
2020/02/19 09:24 EST    0.99   1.12   13  312   16  42.4  41.4 1024.0 -9.9 -9.999 -99.9 -99.99 -9.99
2020/02/19 09:30 EST    0.90   1.03   11  310   15  42.4  41.4 1024.0 -9.9 -9.999 -99.9 -99.99 -9.99
2020/02/19 09:36 EST    0.81   0.95   12  319   15  42.4  41.4 1023.9 -9.9 -9.999 -99.9 -99.99 -9.99
2020/02/19 09:42 EST    0.72   0.90   11  313   15  42.6  41.4 1024.0 -9.9 -9.999 -99.9 -99.99 -9.99
2020/02/19 09:48 EST    0.64   0.83   15  307   17  42.3  41.4 1024.0 -9.9 -9.999 -99.9 -99.99 -9.99
2020/02/19 09:54 EST    0.56   0.80   11  303   18  42.1  41.4 1024.0 -9.9 -9.999 -99.9 -99.99 -9.99
2020/02/19 10:00 EST    0.48   0.71   17  305   21  42.3  41.4 1024.0 -9.9 -9.999 -99.9 -99.99 -9.99
2020/02/19 10:06 EST    0.42   0.58   20  302   24  42.1  41.4 1023.9 -9.9 -9.999 -99.9 -99.99 -9.99
2020/02/19 10:12 EST    0.35   0.58   20  306   25  42.3  41.4 1024.0 -9.9 -9.999 -99.9 -99.99 -9.99
2020/02/19 10:18 EST    0.30   0.49   20  303   23  42.1  41.4 1024.0 -9.9 -9.999 -99.9 -99.99 -9.99
2020/02/19 10:24 EST    0.25   0.49   17  304   22  42.3  41.4 1024.1 -9.9 -9.999 -99.9 -99.99 -9.99
2020/02/19 10:30 EST    0.20   0.41   19  303   22  42.3  41.4 1024.1 -9.9 -9.999 -99.9 -99.99 -9.99
2020/02/19 10:36 EST    0.16   0.35   17  310   23  42.6  41.4 1024.2 -9.9 -9.999 -99.9 -99.99 -9.99
2020/02/19 10:42 EST    0.13   0.30   17  305   19  42.6  41.4 1024.1 -9.9 -9.999 -99.9 -99.99 -9.99
2020/02/19 10:48 EST    0.11   0.30   13  301   18  42.3  41.4 1024.1 -9.9 -9.999 -99.9 -99.99 -9.99
2020/02/19 10:54 EST    0.10   0.31   15  296   16  42.4  41.4 1024.1 -9.9 -9.999 -99.9 -99.99 -9.99
2020/02/19 11:00 EST    0.09   0.27   15  304   17  43.0  41.4 1024.2 -9.9 -9.999 -99.9 -99.99 -9.99
2020/02/19 11:06 EST    0.09   0.26   14  302   16  42.8  41.4 1024.2 -9.9 -9.999 -99.9 -99.99 -9.99
2020/02/19 11:12 EST    0.09   0.23   13  308   17  43.2  41.4 1024.1 -9.9 -9.999 -99.9 -99.99 -9.99
2020/02/19 11:18 EST    0.11   0.28   17  305   20  43.2  41.4 1024.1 -9.9 -9.999 -99.9 -99.99 -9.99
2020/02/19 11:24 EST    0.13   0.28   14  304   18  43.3  41.4 1024.1 -9.9 -9.999 -99.9 -99.99 -9.99
2020/02/19 11:30 EST    0.15   0.31   15  304   17  43.3  41.4 1024.0 -9.9 -9.999 -99.9 -99.99 -9.99
2020/02/19 11:36 EST    0.19   0.31   15  307   19  43.9  41.4 1024.0 -9.9 -9.999 -99.9 -99.99 -9.99
2020/02/19 11:42 EST    0.23   0.35   12  311   17  44.1  41.4 1023.8 -9.9 -9.999 -99.9 -99.99 -9.99
2020/02/19 11:48 EST    0.27   0.45   13  305   15  43.9  41.5 1023.9 -9.9 -9.999 -99.9 -99.99 -9.99
2020/02/19 11:54 EST    0.32   0.48   13  308   15  43.9  41.5 1023.8 -9.9 -9.999 -99.9 -99.99 -9.99
2020/02/19 12:00 EST    0.38   0.56   11  300   13  43.9  41.5 1023.6 -9.9 -9.999 -99.9 -99.99 -9.99
2020/02/19 12:06 EST    0.44   0.61   12  297   15  44.2  41.5 1023.6 -9.9 -9.999 -99.9 -99.99 -9.99
2020/02/19 12:12 EST    0.51   0.65   13  315   17  45.0  41.5 1023.5 -9.9 -9.999 -99.9 -99.99 -9.99
2020/02/19 12:18 EST    0.58   0.75   13  306   15  44.8  41.7 1023.4 -9.9 -9.999 -99.9 -99.99 -9.99
2020/02/19 12:24 EST    0.65   0.79   13  299   15  44.4  41.5 1023.4 -9.9 -9.999 -99.9 -99.99 -9.99
2020/02/19 12:30 EST    0.73   0.87   12  301   15  45.0  41.7 1023.4 -9.9 -9.999 -99.9 -99.99 -9.99
2020/02/19 12:36 EST    0.81   0.92   13  314   19  45.5  41.7 1023.3 -9.9 -9.999 -99.9 -99.99 -9.99
2020/02/19 12:42 EST    0.89   0.98   16  316   18  45.5  41.7 1023.3 -9.9 -9.999 -99.9 -99.99 -9.99
2020/02/19 12:48 EST    0.98   1.05   16  317   21  45.9  41.7 1023.2 -9.9 -9.999 -99.9 -99.99 -9.99
2020/02/19 12:54 EST    1.06   1.09   16  308   21  45.9  41.7 1023.2 -9.9 -9.999 -99.9 -99.99 -9.99
2020/02/19 13:00 EST    1.15   1.19   15  315   22  46.2  41.7 1023.2 -9.9 -9.999 -99.9 -99.99 -9.99
2020/02/19 13:06 EST    1.24   1.27   16  313   21  45.9  41.7 1023.2 -9.9 -9.999 -99.9 -99.99 -9.99
2020/02/19 13:12 EST    1.34   1.35   17  315   20  46.0  41.7 1023.2 -9.9 -9.999 -99.9 -99.99 -9.99
2020/02/19 13:18 EST    1.43   1.43   16  323   21  46.8  41.7 1023.2 -9.9 -9.999 -99.9 -99.99 -9.99
2020/02/19 13:24 EST    1.53   1.55   16  319   20  46.6  41.7 1023.2 -9.9 -9.999 -99.9 -99.99 -9.99
2020/02/19 13:30 EST    1.62   1.65   14  315   18  46.4  41.7 1023.3 -9.9 -9.999 -99.9 -99.99 -9.99
2020/02/19 13:36 EST    1.72   1.71   14  321   19  46.8  41.9 1023.2 -9.9 -9.999 -99.9 -99.99 -9.99
2020/02/19 13:42 EST    1.81   1.85   16  305   19  45.9  41.9 1023.3 -9.9 -9.999 -99.9 -99.99 -9.99
2020/02/19 13:48 EST    1.91   1.98   17  319   21  46.4  41.9 1023.3 -9.9 -9.999 -99.9 -99.99 -9.99
2020/02/19 13:54 EST    2.01   2.05   15  311   19  46.2  41.9 1023.3 -9.9 -9.999 -99.9 -99.99 -9.99
2020/02/19 14:00 EST    2.10   2.11   18  312   22  46.2  41.9 1023.4 -9.9 -9.999 -99.9 -99.99 -9.99
2020/02/19 14:06 EST    2.20   2.22   16  313   20  46.2  41.9 1023.4 -9.9 -9.999 -99.9 -99.99 -9.99
2020/02/19 14:12 EST    2.29   2.33   18  307   20  46.2  41.9 1023.4 -9.9 -9.999 -99.9 -99.99 -9.99
2020/02/19 14:18 EST    2.39   2.40   17  309   20  46.0  41.9 1023.5 -9.9 -9.999 -99.9 -99.99 -9.99
2020/02/19 14:24 EST    2.49   2.45   22  318   28  46.2  41.9 1023.6 -9.9 -9.999 -99.9 -99.99 -9.99
2020/02/19 14:30 EST    2.58   2.53   22  319   25  46.0  42.1 1023.7 -9.9 -9.999 -99.9 -99.99 -9.99
2020/02/19 14:36 EST    2.67   2.59   20  310   26  46.0  42.1 1023.8 -9.9 -9.999 -99.9 -99.99 -9.99
2020/02/19 14:42 EST    2.76   2.69   21  316   31  45.9  42.1 1023.9 -9.9 -9.999 -99.9 -99.99 -9.99
2020/02/19 14:48 EST    2.86   2.77   20  314   29  45.7  42.1 1023.8 -9.9 -9.999 -99.9 -99.99 -9.99
2020/02/19 14:54 EST    2.94   2.82   20  315   27  45.9  42.1 1023.9 -9.9 -9.999 -99.9 -99.99 -9.99
2020/02/19 15:00 EST    3.03   2.91   20  312   24  45.9  42.1 1024.0 -9.9 -9.999 -99.9 -99.99 -9.99
2020/02/19 15:06 EST    3.12   2.99   17  318   21  45.9  42.3 1024.1 -9.9 -9.999 -99.9 -99.99 -9.99
2020/02/19 15:12 EST    3.20   3.07   20  312   24  45.7  42.1 1024.1 -9.9 -9.999 -99.9 -99.99 -9.99
2020/02/19 15:18 EST    3.28   3.13   21  308   24  45.5  42.1 1024.1 -9.9 -9.999 -99.9 -99.99 -9.99
2020/02/19 15:24 EST    3.36   3.18   17  309   24  45.3  42.1 1024.2 -9.9 -9.999 -99.9 -99.99 -9.99
2020/02/19 15:30 EST    3.44   3.26   18  308   23  45.3  42.3 1024.3 -9.9 -9.999 -99.9 -99.99 -9.99
2020/02/19 15:36 EST    3.51   3.32   14  314   21  45.9  42.3 1024.3 -9.9 -9.999 -99.9 -99.99 -9.99
2020/02/19 15:42 EST    3.57   3.37   15  300   17  44.8  42.3 1024.3 -9.9 -9.999 -99.9 -99.99 -9.99
2020/02/19 15:48 EST    3.64 -99.99 -999 -999 -999 -99.9 -99.9 -999.9 -9.9 -9.999 -99.9 -99.99 -9.99